KAL401 RKSI-YSSY
Flight info
| Callsign | KAL401 |
|---|---|
| Flight time | N/A |
| Altitude | 33000 |
| Route | OSPOT2Y OSPOT Y782 TGU Y781 BESNA Y209 IKE A582 HKC Y14 TGE G339 SABGU/N0490F350 G339 PAKDO DCT 14N140E 08N142E 04N143E DCT FACED A216 KIBAV/N0482F370 A216 CS Y177 AKROM Y153 ROKUU H652 BOREE |
| Aircraft | B77W/H-SDE1E2E3FGHIJ2J3J4J5M1RWXY/LB1D1 |
Departure
| Time | 2026-05-03 23:14 |
|---|---|
| Airport | Incheon International Airport (RKSI) |
Arrival
| Time | N/A |
|---|---|
| Airport | Sydney Kingsford Smith International Airport (YSSY) |
| Time | Latitude | Longitude | Altitude | Speed | Heading |
|---|---|---|---|---|---|
| 2026-05-03 21:48 | 37.46970 | 126.42627 | 38 ft | 0 kts | 66° |
| 2026-05-03 23:01 | 37.46970 | 126.42626 | 38 ft | 1 kts | 66° |
| 2026-05-03 23:01 | 37.46960 | 126.42598 | 36 ft | 4 kts | 66° |
| 2026-05-03 23:02 | 37.46949 | 126.42567 | 38 ft | 4 kts | 66° |
| 2026-05-03 23:02 | 37.46938 | 126.42539 | 38 ft | 4 kts | 46° |
| 2026-05-03 23:02 | 37.46921 | 126.42530 | 36 ft | 4 kts | 329° |
| 2026-05-03 23:02 | 37.46901 | 126.42551 | 35 ft | 4 kts | 321° |
| 2026-05-03 23:03 | 37.46893 | 126.42558 | 35 ft | 0 kts | 324° |
| 2026-05-03 23:05 | 37.46904 | 126.42548 | 35 ft | 4 kts | 323° |
| 2026-05-03 23:05 | 37.46928 | 126.42525 | 35 ft | 4 kts | 323° |
| 2026-05-03 23:06 | 37.46955 | 126.42502 | 38 ft | 6 kts | 325° |
| 2026-05-03 23:06 | 37.46993 | 126.42466 | 38 ft | 8 kts | 320° |
| 2026-05-03 23:06 | 37.47002 | 126.42403 | 38 ft | 8 kts | 246° |
| 2026-05-03 23:06 | 37.46973 | 126.42343 | 38 ft | 8 kts | 236° |
| 2026-05-03 23:07 | 37.46930 | 126.42306 | 38 ft | 8 kts | 181° |
| 2026-05-03 23:07 | 37.46880 | 126.42336 | 38 ft | 8 kts | 148° |
| 2026-05-03 23:07 | 37.46834 | 126.42375 | 38 ft | 8 kts | 145° |
| 2026-05-03 23:07 | 37.46789 | 126.42415 | 38 ft | 8 kts | 144° |
| 2026-05-03 23:08 | 37.46742 | 126.42456 | 38 ft | 9 kts | 145° |
| 2026-05-03 23:08 | 37.46679 | 126.42512 | 38 ft | 14 kts | 145° |
| 2026-05-03 23:08 | 37.46583 | 126.42596 | 38 ft | 20 kts | 145° |
| 2026-05-03 23:08 | 37.46458 | 126.42710 | 38 ft | 25 kts | 144° |
| 2026-05-03 23:09 | 37.46302 | 126.42849 | 38 ft | 30 kts | 144° |
| 2026-05-03 23:09 | 37.46121 | 126.43010 | 38 ft | 34 kts | 144° |
| 2026-05-03 23:09 | 37.45927 | 126.43183 | 37 ft | 35 kts | 144° |
| 2026-05-03 23:09 | 37.45724 | 126.43363 | 37 ft | 36 kts | 144° |
| 2026-05-03 23:10 | 37.45516 | 126.43549 | 37 ft | 37 kts | 144° |
| 2026-05-03 23:10 | 37.45303 | 126.43741 | 37 ft | 38 kts | 144° |
| 2026-05-03 23:10 | 37.45081 | 126.43936 | 37 ft | 39 kts | 144° |
| 2026-05-03 23:10 | 37.44854 | 126.44137 | 37 ft | 40 kts | 144° |
| 2026-05-03 23:11 | 37.44672 | 126.44300 | 37 ft | 25 kts | 142° |
| 2026-05-03 23:11 | 37.44553 | 126.44409 | 37 ft | 16 kts | 158° |
| 2026-05-03 23:11 | 37.44458 | 126.44360 | 37 ft | 17 kts | 232° |
| 2026-05-03 23:11 | 37.44391 | 126.44239 | 37 ft | 11 kts | 235° |
| 2026-05-03 23:12 | 37.44375 | 126.44162 | 37 ft | 10 kts | 284° |
| 2026-05-03 23:12 | 37.44424 | 126.44101 | 37 ft | 11 kts | 323° |
| 2026-05-03 23:12 | 37.44456 | 126.44073 | 37 ft | 3 kts | 326° |
| 2026-05-03 23:12 | 37.44474 | 126.44057 | 37 ft | 4 kts | 325° |
| 2026-05-03 23:13 | 37.44541 | 126.43996 | 36 ft | 24 kts | 323° |
| 2026-05-03 23:13 | 37.44885 | 126.43691 | 38 ft | 104 kts | 324° |
| 2026-05-03 23:13 | 37.45701 | 126.42959 | 39 ft | 181 kts | 324° |
| 2026-05-03 23:13 | 37.46842 | 126.41956 | 228 ft | 214 kts | 323° |
| 2026-05-03 23:14 | 37.48113 | 126.40821 | 932 ft | 229 kts | 324° |
| 2026-05-03 23:14 | 37.49406 | 126.39683 | 2260 ft | 222 kts | 324° |
| 2026-05-03 23:14 | 37.50610 | 126.38542 | 3497 ft | 216 kts | 317° |
| 2026-05-03 23:14 | 37.51705 | 126.37395 | 4873 ft | 200 kts | 326° |
| 2026-05-03 23:15 | 37.52873 | 126.36412 | 5787 ft | 204 kts | 324° |
| 2026-05-03 23:15 | 37.53823 | 126.35056 | 6285 ft | 222 kts | 294° |
| 2026-05-03 23:15 | 37.53887 | 126.33012 | 6673 ft | 252 kts | 256° |
| 2026-05-03 23:15 | 37.52939 | 126.31066 | 7302 ft | 268 kts | 238° |
| 2026-05-03 23:16 | 37.51730 | 126.29243 | 8055 ft | 274 kts | 236° |
| 2026-05-03 23:16 | 37.50460 | 126.27413 | 8974 ft | 276 kts | 236° |
| 2026-05-03 23:16 | 37.49199 | 126.25611 | 9871 ft | 277 kts | 236° |
| 2026-05-03 23:16 | 37.47915 | 126.23764 | 10570 ft | 285 kts | 236° |
| 2026-05-03 23:17 | 37.46560 | 126.21799 | 10826 ft | 310 kts | 235° |
| 2026-05-03 23:17 | 37.45090 | 126.19673 | 11037 ft | 334 kts | 233° |
| 2026-05-03 23:17 | 37.43167 | 126.17825 | 11213 ft | 369 kts | 208° |
| 2026-05-03 23:17 | 37.40576 | 126.17156 | 11858 ft | 395 kts | 182° |
| 2026-05-03 23:18 | 37.37840 | 126.17904 | 12617 ft | 412 kts | 158° |
| 2026-05-03 23:18 | 37.35477 | 126.19984 | 13465 ft | 421 kts | 133° |
| 2026-05-03 23:18 | 37.33745 | 126.22949 | 14179 ft | 422 kts | 122° |
| 2026-05-03 23:18 | 37.32066 | 126.26037 | 14774 ft | 430 kts | 127° |
| 2026-05-03 23:19 | 37.30204 | 126.28952 | 15546 ft | 435 kts | 130° |
| 2026-05-03 23:19 | 37.28207 | 126.31818 | 16416 ft | 437 kts | 132° |
| 2026-05-03 23:19 | 37.26169 | 126.34667 | 17255 ft | 440 kts | 132° |
| 2026-05-03 23:19 | 37.24116 | 126.37557 | 18036 ft | 445 kts | 131° |
| 2026-05-03 23:20 | 37.22054 | 126.40486 | 18697 ft | 451 kts | 131° |
| 2026-05-03 23:20 | 37.20071 | 126.43578 | 19306 ft | 456 kts | 125° |
| 2026-05-03 23:20 | 37.18341 | 126.46933 | 19926 ft | 460 kts | 118° |
| 2026-05-03 23:20 | 37.16895 | 126.50531 | 20567 ft | 464 kts | 114° |
| 2026-05-03 23:21 | 37.15523 | 126.54217 | 21174 ft | 469 kts | 114° |
| 2026-05-03 23:21 | 37.14118 | 126.57932 | 21757 ft | 474 kts | 115° |
| 2026-05-03 23:21 | 37.12690 | 126.61625 | 22355 ft | 479 kts | 115° |
| 2026-05-03 23:21 | 37.11219 | 126.65394 | 22939 ft | 484 kts | 115° |
| 2026-05-03 23:22 | 37.08224 | 126.73043 | 23972 ft | 493 kts | 115° |
| 2026-05-03 23:22 | 37.06712 | 126.76903 | 24406 ft | 499 kts | 116° |
| 2026-05-03 23:22 | 37.05174 | 126.80826 | 24816 ft | 504 kts | 117° |
| 2026-05-03 23:23 | 37.03619 | 126.84789 | 25235 ft | 509 kts | 117° |
| 2026-05-03 23:23 | 37.02049 | 126.88783 | 25659 ft | 513 kts | 117° |
| 2026-05-03 23:23 | 37.00478 | 126.92779 | 26085 ft | 517 kts | 117° |
| 2026-05-03 23:23 | 36.98891 | 126.96810 | 26497 ft | 522 kts | 118° |
| 2026-05-03 23:24 | 36.97268 | 127.00930 | 26877 ft | 527 kts | 119° |
| 2026-05-03 23:24 | 36.95630 | 127.05084 | 27150 ft | 534 kts | 119° |
| 2026-05-03 23:24 | 36.93974 | 127.09268 | 27504 ft | 539 kts | 119° |
| 2026-05-03 23:24 | 36.92304 | 127.13485 | 27921 ft | 542 kts | 120° |
| 2026-05-03 23:25 | 36.90650 | 127.17660 | 28306 ft | 545 kts | 120° |
| 2026-05-03 23:25 | 36.88959 | 127.21926 | 28661 ft | 549 kts | 120° |
| 2026-05-03 23:25 | 36.87255 | 127.26219 | 28935 ft | 554 kts | 121° |
| 2026-05-03 23:25 | 36.85441 | 127.30493 | 29221 ft | 555 kts | 126° |
| 2026-05-03 23:26 | 36.83319 | 127.34501 | 29699 ft | 550 kts | 132° |
| 2026-05-03 23:26 | 36.80981 | 127.38247 | 30207 ft | 544 kts | 137° |
| 2026-05-03 23:26 | 36.78428 | 127.41692 | 30604 ft | 537 kts | 143° |
| 2026-05-03 23:26 | 36.75718 | 127.44890 | 30968 ft | 536 kts | 144° |
| 2026-05-03 23:27 | 36.73018 | 127.48102 | 31297 ft | 537 kts | 144° |
| 2026-05-03 23:27 | 36.70351 | 127.51351 | 31718 ft | 535 kts | 143° |
| 2026-05-03 23:27 | 36.67705 | 127.54599 | 32210 ft | 532 kts | 143° |
| 2026-05-03 23:27 | 36.65070 | 127.57831 | 32623 ft | 531 kts | 144° |
| 2026-05-03 23:28 | 36.62464 | 127.61018 | 32957 ft | 532 kts | 144° |
| 2026-05-03 23:28 | 36.59822 | 127.64239 | 32905 ft | 536 kts | 144° |
| 2026-05-03 23:28 | 36.54510 | 127.70710 | 32906 ft | 532 kts | 144° |
| 2026-05-03 23:29 | 36.49244 | 127.77118 | 32912 ft | 525 kts | 145° |
| 2026-05-03 23:29 | 36.44063 | 127.83401 | 32902 ft | 521 kts | 145° |
| 2026-05-03 23:30 | 36.38879 | 127.89693 | 32910 ft | 521 kts | 145° |
| 2026-05-03 23:30 | 36.33684 | 127.95997 | 32858 ft | 522 kts | 146° |
| 2026-05-03 23:31 | 36.28480 | 128.02295 | 32901 ft | 523 kts | 147° |
| 2026-05-03 23:31 | 36.23282 | 128.08562 | 32908 ft | 525 kts | 147° |
| 2026-05-03 23:32 | 36.18022 | 128.14882 | 32909 ft | 528 kts | 147° |
| 2026-05-03 23:32 | 36.12737 | 128.21232 | 32908 ft | 529 kts | 148° |
| 2026-05-03 23:33 | 36.07484 | 128.27528 | 32928 ft | 528 kts | 148° |
| 2026-05-03 23:33 | 36.02196 | 128.33857 | 32924 ft | 528 kts | 148° |
| 2026-05-03 23:34 | 35.96906 | 128.40183 | 32884 ft | 529 kts | 150° |
| 2026-05-03 23:34 | 35.91620 | 128.46475 | 32910 ft | 531 kts | 150° |
| 2026-05-03 23:35 | 35.86289 | 128.52817 | 32915 ft | 532 kts | 150° |
| 2026-05-03 23:35 | 35.83532 | 128.55722 | 32907 ft | 506 kts | 163° |
| 2026-05-03 23:35 | 35.80497 | 128.57551 | 32934 ft | 469 kts | 178° |
| 2026-05-03 23:36 | 35.77397 | 128.58445 | 32912 ft | 445 kts | 188° |
| 2026-05-03 23:36 | 35.74368 | 128.58637 | 32902 ft | 426 kts | 199° |
| 2026-05-03 23:36 | 35.68567 | 128.57944 | 32904 ft | 421 kts | 200° |
| 2026-05-03 23:37 | 35.62768 | 128.57430 | 32929 ft | 416 kts | 200° |
| 2026-05-03 23:37 | 35.56989 | 128.56917 | 32931 ft | 415 kts | 200° |
| 2026-05-03 23:38 | 35.51200 | 128.56567 | 32919 ft | 426 kts | 194° |
| 2026-05-03 23:38 | 35.48176 | 128.57064 | 32912 ft | 447 kts | 186° |
| 2026-05-03 23:38 | 35.45114 | 128.58015 | 32935 ft | 461 kts | 181° |
| 2026-05-03 23:39 | 35.42053 | 128.59441 | 32925 ft | 479 kts | 173° |
| 2026-05-03 23:39 | 35.39066 | 128.61190 | 32946 ft | 483 kts | 172° |
| 2026-05-03 23:39 | 35.33037 | 128.64900 | 32935 ft | 485 kts | 172° |
| 2026-05-03 23:40 | 35.28033 | 128.67937 | 32837 ft | 479 kts | 172° |
| 2026-05-03 23:40 | 35.21091 | 128.72057 | 32926 ft | 470 kts | 173° |
| 2026-05-03 23:41 | 35.16188 | 128.74931 | 32903 ft | 469 kts | 173° |
| 2026-05-03 23:41 | 35.10309 | 128.78377 | 32945 ft | 468 kts | 173° |
| 2026-05-03 23:42 | 35.04404 | 128.81842 | 32957 ft | 474 kts | 172° |
| 2026-05-03 23:42 | 34.98528 | 128.85533 | 32946 ft | 487 kts | 166° |
| 2026-05-03 23:43 | 34.92744 | 128.89959 | 32894 ft | 491 kts | 165° |
| 2026-05-03 23:43 | 34.86982 | 128.94417 | 32951 ft | 490 kts | 165° |
| 2026-05-03 23:44 | 34.81198 | 128.98810 | 32959 ft | 489 kts | 165° |
| 2026-05-03 23:44 | 34.75437 | 129.03147 | 32903 ft | 489 kts | 165° |
| 2026-05-03 23:45 | 34.69631 | 129.07513 | 32969 ft | 490 kts | 165° |
| 2026-05-03 23:45 | 34.63819 | 129.11881 | 32967 ft | 492 kts | 165° |
| 2026-05-03 23:46 | 34.58033 | 129.16216 | 32962 ft | 492 kts | 165° |
| 2026-05-03 23:46 | 34.52192 | 129.20567 | 32970 ft | 492 kts | 165° |
| 2026-05-03 23:47 | 34.46349 | 129.24915 | 32936 ft | 492 kts | 165° |
| 2026-05-03 23:47 | 34.40513 | 129.29258 | 32908 ft | 492 kts | 165° |
| 2026-05-03 23:48 | 34.34715 | 129.33563 | 32906 ft | 491 kts | 165° |
| 2026-05-03 23:48 | 34.28891 | 129.37884 | 32970 ft | 489 kts | 164° |
| 2026-05-03 23:49 | 34.23083 | 129.42182 | 32982 ft | 488 kts | 164° |
| 2026-05-03 23:49 | 34.17286 | 129.46462 | 32945 ft | 488 kts | 164° |
| 2026-05-03 23:50 | 34.11522 | 129.50715 | 32981 ft | 489 kts | 164° |
| 2026-05-03 23:50 | 34.05712 | 129.54993 | 32991 ft | 490 kts | 164° |
| 2026-05-03 23:51 | 33.99883 | 129.59310 | 32961 ft | 492 kts | 163° |
| 2026-05-03 23:51 | 33.94050 | 129.63625 | 32980 ft | 491 kts | 164° |
| 2026-05-03 23:52 | 33.88223 | 129.67846 | 32981 ft | 491 kts | 164° |
| 2026-05-03 23:52 | 33.82359 | 129.72100 | 32982 ft | 492 kts | 164° |
| 2026-05-03 23:53 | 33.76537 | 129.76365 | 32981 ft | 487 kts | 167° |
| 2026-05-03 23:53 | 33.73550 | 129.78171 | 32941 ft | 474 kts | 172° |
| 2026-05-03 23:53 | 33.70520 | 129.79544 | 32936 ft | 459 kts | 178° |
| 2026-05-03 23:54 | 33.64438 | 129.81887 | 32909 ft | 458 kts | 177° |
| 2026-05-03 23:54 | 33.58392 | 129.84271 | 32946 ft | 456 kts | 176° |
| 2026-05-03 23:55 | 33.52368 | 129.86674 | 32968 ft | 455 kts | 176° |
| 2026-05-03 23:55 | 33.46365 | 129.89071 | 32978 ft | 454 kts | 176° |
| 2026-05-03 23:56 | 33.40407 | 129.91444 | 32931 ft | 453 kts | 175° |
| 2026-05-03 23:56 | 33.34453 | 129.93818 | 32993 ft | 449 kts | 175° |
| 2026-05-03 23:57 | 33.28515 | 129.96174 | 32964 ft | 448 kts | 175° |
| 2026-05-03 23:57 | 33.22604 | 129.98519 | 32989 ft | 448 kts | 175° |
| 2026-05-03 23:58 | 33.16726 | 130.00838 | 32947 ft | 447 kts | 175° |
| 2026-05-03 23:58 | 33.10807 | 130.03166 | 32925 ft | 448 kts | 175° |
| 2026-05-03 23:59 | 33.04858 | 130.05504 | 32989 ft | 452 kts | 175° |
| 2026-05-03 23:59 | 32.98848 | 130.07857 | 32992 ft | 458 kts | 175° |
| 2026-05-04 00:00 | 32.92764 | 130.10245 | 32966 ft | 461 kts | 175° |
| 2026-05-04 00:00 | 32.86704 | 130.12628 | 32976 ft | 460 kts | 175° |
| 2026-05-04 00:01 | 32.80633 | 130.15009 | 32978 ft | 457 kts | 175° |
| 2026-05-04 00:01 | 32.74587 | 130.17372 | 32989 ft | 455 kts | 175° |
| 2026-05-04 00:02 | 32.68617 | 130.19700 | 33006 ft | 454 kts | 175° |
| 2026-05-04 00:02 | 32.62615 | 130.22038 | 33016 ft | 452 kts | 175° |
| 2026-05-04 00:03 | 32.56633 | 130.24369 | 33009 ft | 452 kts | 174° |
| 2026-05-04 00:03 | 32.50701 | 130.26713 | 33009 ft | 451 kts | 174° |
| 2026-05-04 00:04 | 32.44729 | 130.29079 | 33006 ft | 452 kts | 174° |
| 2026-05-04 00:04 | 32.38733 | 130.31447 | 33010 ft | 455 kts | 174° |
| 2026-05-04 00:05 | 32.32711 | 130.33818 | 33039 ft | 457 kts | 174° |
| 2026-05-04 00:05 | 32.26701 | 130.36184 | 33024 ft | 458 kts | 174° |
| 2026-05-04 00:06 | 32.20646 | 130.38566 | 33019 ft | 459 kts | 174° |
| 2026-05-04 00:06 | 32.14571 | 130.40952 | 33008 ft | 460 kts | 173° |
| 2026-05-04 00:07 | 32.08488 | 130.43326 | 33010 ft | 461 kts | 174° |
| 2026-05-04 00:07 | 32.02423 | 130.45674 | 33024 ft | 461 kts | 174° |
| 2026-05-04 00:08 | 31.96314 | 130.48032 | 32984 ft | 463 kts | 173° |
| 2026-05-04 00:08 | 31.90186 | 130.50401 | 33000 ft | 463 kts | 173° |
| 2026-05-04 00:09 | 31.84057 | 130.52769 | 33004 ft | 464 kts | 173° |
| 2026-05-04 00:09 | 31.77950 | 130.55122 | 32998 ft | 465 kts | 173° |
| 2026-05-04 00:10 | 31.71801 | 130.57491 | 32999 ft | 465 kts | 173° |
| 2026-05-04 00:10 | 31.65640 | 130.59845 | 32993 ft | 464 kts | 173° |
| 2026-05-04 00:11 | 31.59483 | 130.62167 | 33016 ft | 465 kts | 173° |
| 2026-05-04 00:11 | 31.53315 | 130.64495 | 33007 ft | 467 kts | 173° |
| 2026-05-04 00:12 | 31.47121 | 130.66820 | 33013 ft | 467 kts | 173° |
| 2026-05-04 00:12 | 31.40926 | 130.69142 | 33005 ft | 467 kts | 173° |
| 2026-05-04 00:13 | 31.34776 | 130.71447 | 33003 ft | 467 kts | 173° |
| 2026-05-04 00:13 | 31.28583 | 130.73768 | 33008 ft | 466 kts | 173° |
| 2026-05-04 00:14 | 31.22408 | 130.76087 | 33001 ft | 466 kts | 173° |
| 2026-05-04 00:14 | 31.16240 | 130.78401 | 32995 ft | 465 kts | 173° |
| 2026-05-04 00:15 | 31.10073 | 130.80707 | 32996 ft | 465 kts | 173° |
| 2026-05-04 00:15 | 31.03906 | 130.82979 | 33003 ft | 465 kts | 173° |
| 2026-05-04 00:16 | 30.97759 | 130.85235 | 33012 ft | 466 kts | 173° |
| 2026-05-04 00:16 | 30.91573 | 130.87509 | 33007 ft | 466 kts | 173° |
| 2026-05-04 00:17 | 30.85388 | 130.89817 | 33009 ft | 467 kts | 173° |
| 2026-05-04 00:17 | 30.79189 | 130.92141 | 32985 ft | 468 kts | 172° |
| 2026-05-04 00:18 | 30.72969 | 130.94455 | 32986 ft | 470 kts | 172° |
| 2026-05-04 00:18 | 30.66773 | 130.96758 | 33000 ft | 470 kts | 172° |
| 2026-05-04 00:19 | 30.60570 | 130.99352 | 32991 ft | 481 kts | 165° |
| 2026-05-04 00:19 | 30.54695 | 131.03218 | 32997 ft | 494 kts | 156° |
| 2026-05-04 00:20 | 30.48964 | 131.07653 | 33015 ft | 494 kts | 156° |
| 2026-05-04 00:20 | 30.43186 | 131.12004 | 32971 ft | 494 kts | 156° |
| 2026-05-04 00:21 | 30.37439 | 131.16351 | 33012 ft | 491 kts | 156° |
| 2026-05-04 00:21 | 30.31766 | 131.20649 | 33021 ft | 489 kts | 156° |
| 2026-05-04 00:22 | 30.26069 | 131.24951 | 33023 ft | 488 kts | 156° |
| 2026-05-04 00:22 | 30.20382 | 131.29238 | 33022 ft | 487 kts | 156° |
| 2026-05-04 00:23 | 30.14685 | 131.33487 | 33023 ft | 488 kts | 156° |
| 2026-05-04 00:23 | 30.08972 | 131.37730 | 33020 ft | 487 kts | 156° |
| 2026-05-04 00:24 | 30.03301 | 131.41944 | 33021 ft | 488 kts | 156° |
| 2026-05-04 00:24 | 29.97582 | 131.46191 | 33022 ft | 488 kts | 156° |
| 2026-05-04 00:25 | 29.91874 | 131.50438 | 33021 ft | 489 kts | 156° |
| 2026-05-04 00:25 | 29.86157 | 131.54689 | 33019 ft | 489 kts | 156° |
| 2026-05-04 00:26 | 29.80444 | 131.58931 | 33014 ft | 488 kts | 155° |
| 2026-05-04 00:26 | 29.74730 | 131.63167 | 33021 ft | 488 kts | 155° |
| 2026-05-04 00:27 | 29.69002 | 131.67406 | 33022 ft | 489 kts | 155° |
| 2026-05-04 00:27 | 29.63277 | 131.71640 | 33024 ft | 489 kts | 155° |
| 2026-05-04 00:28 | 29.57611 | 131.75899 | 33007 ft | 492 kts | 153° |
| 2026-05-04 00:28 | 29.52048 | 131.80531 | 33004 ft | 494 kts | 152° |
| 2026-05-04 00:29 | 29.46496 | 131.85185 | 33020 ft | 495 kts | 152° |
| 2026-05-04 00:29 | 29.40940 | 131.89799 | 33027 ft | 496 kts | 152° |
| 2026-05-04 00:30 | 29.36275 | 131.93659 | 33022 ft | 497 kts | 152° |
| 2026-05-04 00:30 | 29.30649 | 131.98296 | 33023 ft | 497 kts | 152° |
| 2026-05-04 00:31 | 29.25028 | 132.02920 | 33017 ft | 497 kts | 152° |
| 2026-05-04 00:31 | 29.19417 | 132.07537 | 33014 ft | 496 kts | 151° |
| 2026-05-04 00:32 | 29.13797 | 132.12153 | 33020 ft | 497 kts | 151° |
| 2026-05-04 00:32 | 29.08217 | 132.16730 | 33022 ft | 497 kts | 151° |
| 2026-05-04 00:33 | 28.99771 | 132.23644 | 33019 ft | 497 kts | 151° |
| 2026-05-04 00:34 | 28.94137 | 132.28252 | 33029 ft | 497 kts | 151° |
| 2026-05-04 00:34 | 28.88542 | 132.32820 | 33016 ft | 497 kts | 151° |
| 2026-05-04 00:35 | 28.82909 | 132.37412 | 33025 ft | 497 kts | 151° |
| 2026-05-04 00:35 | 28.77272 | 132.42001 | 33014 ft | 497 kts | 150° |
| 2026-05-04 00:36 | 28.71650 | 132.46572 | 33021 ft | 496 kts | 150° |
| 2026-05-04 00:36 | 28.66053 | 132.51118 | 33025 ft | 496 kts | 150° |
| 2026-05-04 00:37 | 28.60420 | 132.55685 | 33025 ft | 496 kts | 150° |
| 2026-05-04 00:37 | 28.54799 | 132.60238 | 33024 ft | 496 kts | 151° |
| 2026-05-04 00:38 | 28.49212 | 132.64757 | 33018 ft | 496 kts | 150° |
| 2026-05-04 00:38 | 28.43589 | 132.69299 | 33022 ft | 495 kts | 150° |
| 2026-05-04 00:39 | 28.37966 | 132.73836 | 33021 ft | 495 kts | 150° |
| 2026-05-04 00:39 | 28.32339 | 132.78367 | 33024 ft | 496 kts | 150° |
| 2026-05-04 00:40 | 28.26728 | 132.82877 | 33007 ft | 496 kts | 150° |
| 2026-05-04 00:40 | 28.21083 | 132.87412 | 33025 ft | 497 kts | 150° |
| 2026-05-04 00:41 | 28.15429 | 132.91949 | 33014 ft | 498 kts | 150° |
| 2026-05-04 00:41 | 28.09774 | 132.96482 | 33029 ft | 498 kts | 150° |
| 2026-05-04 00:42 | 28.04147 | 133.00985 | 33020 ft | 498 kts | 150° |
| 2026-05-04 00:42 | 27.98483 | 133.05513 | 33015 ft | 498 kts | 150° |
| 2026-05-04 00:43 | 27.92826 | 133.10030 | 33014 ft | 497 kts | 150° |
| 2026-05-04 00:43 | 27.87207 | 133.14510 | 33018 ft | 497 kts | 150° |
| 2026-05-04 00:44 | 27.81539 | 133.19022 | 33020 ft | 497 kts | 150° |
| 2026-05-04 00:44 | 27.75911 | 133.23499 | 33009 ft | 497 kts | 150° |
| 2026-05-04 00:45 | 27.70267 | 133.27986 | 33017 ft | 495 kts | 150° |
| 2026-05-04 00:45 | 27.64627 | 133.32463 | 33017 ft | 495 kts | 150° |
| 2026-05-04 00:46 | 27.58993 | 133.36929 | 33018 ft | 494 kts | 150° |
| 2026-05-04 00:46 | 27.53374 | 133.41378 | 33020 ft | 493 kts | 150° |
| 2026-05-04 00:47 | 27.47792 | 133.45792 | 33022 ft | 492 kts | 149° |
| 2026-05-04 00:47 | 27.42181 | 133.50224 | 33019 ft | 492 kts | 149° |
| 2026-05-04 00:48 | 27.36576 | 133.54644 | 33018 ft | 491 kts | 149° |
| 2026-05-04 00:48 | 27.30975 | 133.59055 | 33009 ft | 491 kts | 149° |
| 2026-05-04 00:49 | 27.25395 | 133.63445 | 33014 ft | 491 kts | 149° |
| 2026-05-04 00:49 | 27.19777 | 133.67860 | 33021 ft | 492 kts | 149° |
| 2026-05-04 00:50 | 27.14198 | 133.72239 | 33023 ft | 492 kts | 149° |
| 2026-05-04 00:50 | 27.08567 | 133.76652 | 33027 ft | 493 kts | 149° |
| 2026-05-04 00:51 | 27.02937 | 133.81060 | 33027 ft | 493 kts | 149° |
| 2026-05-04 00:51 | 26.97328 | 133.85446 | 33020 ft | 494 kts | 149° |
| 2026-05-04 00:52 | 26.91674 | 133.89862 | 33031 ft | 494 kts | 149° |
| 2026-05-04 00:52 | 26.86028 | 133.94266 | 33033 ft | 494 kts | 149° |
| 2026-05-04 00:53 | 26.80405 | 133.98648 | 33032 ft | 495 kts | 149° |
| 2026-05-04 00:53 | 26.74747 | 134.03051 | 33033 ft | 495 kts | 149° |
| 2026-05-04 00:54 | 26.69113 | 134.07427 | 33018 ft | 495 kts | 149° |
| 2026-05-04 00:54 | 26.63446 | 134.11820 | 33051 ft | 495 kts | 149° |
| 2026-05-04 00:55 | 26.57783 | 134.16208 | 33042 ft | 496 kts | 149° |
| 2026-05-04 00:55 | 26.52103 | 134.20605 | 33046 ft | 496 kts | 149° |
| 2026-05-04 00:56 | 26.46458 | 134.24969 | 33040 ft | 496 kts | 148° |
| 2026-05-04 00:56 | 26.40772 | 134.29360 | 33045 ft | 497 kts | 149° |
| 2026-05-04 00:57 | 26.35080 | 134.33750 | 33044 ft | 497 kts | 148° |
| 2026-05-04 00:57 | 26.29375 | 134.38144 | 33049 ft | 498 kts | 148° |
| 2026-05-04 00:58 | 26.23702 | 134.42509 | 33040 ft | 498 kts | 148° |
| 2026-05-04 00:58 | 26.17983 | 134.46904 | 33048 ft | 499 kts | 148° |
| 2026-05-04 00:59 | 26.12265 | 134.51292 | 33053 ft | 499 kts | 148° |
| 2026-05-04 00:59 | 26.06564 | 134.55662 | 33043 ft | 500 kts | 148° |
| 2026-05-04 01:00 | 26.00831 | 134.60052 | 33050 ft | 500 kts | 148° |
| 2026-05-04 01:00 | 25.95087 | 134.64445 | 33051 ft | 500 kts | 148° |
| 2026-05-04 01:01 | 25.89341 | 134.68834 | 33053 ft | 501 kts | 148° |
| 2026-05-04 01:01 | 25.83600 | 134.73214 | 33053 ft | 501 kts | 148° |
| 2026-05-04 01:02 | 25.77889 | 134.77566 | 33057 ft | 501 kts | 148° |
| 2026-05-04 01:02 | 25.72148 | 134.81935 | 33050 ft | 501 kts | 148° |
| 2026-05-04 01:03 | 25.66404 | 134.86302 | 33053 ft | 500 kts | 148° |
| 2026-05-04 01:03 | 25.60661 | 134.90664 | 33055 ft | 500 kts | 148° |
| 2026-05-04 01:04 | 25.54912 | 134.95025 | 33052 ft | 500 kts | 148° |
| 2026-05-04 01:04 | 25.49151 | 134.99354 | 33064 ft | 499 kts | 150° |
| 2026-05-04 01:05 | 25.43199 | 135.03302 | 33056 ft | 497 kts | 152° |
| 2026-05-04 01:05 | 25.37226 | 135.07164 | 33059 ft | 497 kts | 152° |
| 2026-05-04 01:06 | 25.31290 | 135.11015 | 33061 ft | 497 kts | 152° |
| 2026-05-04 01:06 | 25.25335 | 135.14898 | 33056 ft | 497 kts | 152° |
| 2026-05-04 01:07 | 25.19373 | 135.18789 | 33061 ft | 496 kts | 152° |
| 2026-05-04 01:07 | 25.13424 | 135.22669 | 33063 ft | 496 kts | 152° |
| 2026-05-04 01:08 | 25.07501 | 135.26525 | 33055 ft | 496 kts | 152° |
| 2026-05-04 01:08 | 25.01548 | 135.30396 | 33062 ft | 496 kts | 152° |
| 2026-05-04 01:09 | 24.95581 | 135.34272 | 33062 ft | 497 kts | 152° |
| 2026-05-04 01:09 | 24.89611 | 135.38144 | 33053 ft | 497 kts | 152° |
| 2026-05-04 01:10 | 24.83677 | 135.41990 | 33063 ft | 497 kts | 152° |
| 2026-05-04 01:10 | 24.77700 | 135.45859 | 33065 ft | 497 kts | 152° |
| 2026-05-04 01:11 | 24.71774 | 135.49690 | 33058 ft | 497 kts | 153° |
| 2026-05-04 01:11 | 24.65804 | 135.53546 | 33065 ft | 497 kts | 153° |
| 2026-05-04 01:12 | 24.59829 | 135.57401 | 33062 ft | 498 kts | 153° |
| 2026-05-04 01:12 | 24.53847 | 135.61255 | 33059 ft | 498 kts | 153° |
| 2026-05-04 01:13 | 24.47872 | 135.65102 | 33070 ft | 498 kts | 153° |
| 2026-05-04 01:13 | 24.41939 | 135.68916 | 33070 ft | 498 kts | 153° |
| 2026-05-04 01:14 | 24.35961 | 135.72756 | 33060 ft | 498 kts | 153° |
| 2026-05-04 01:14 | 24.29973 | 135.76598 | 33066 ft | 498 kts | 153° |
| 2026-05-04 01:15 | 24.23989 | 135.80432 | 33077 ft | 498 kts | 153° |
| 2026-05-04 01:15 | 24.18035 | 135.84244 | 33067 ft | 498 kts | 153° |
| 2026-05-04 01:16 | 24.12048 | 135.88072 | 33069 ft | 498 kts | 153° |
| 2026-05-04 01:16 | 24.06048 | 135.91905 | 33071 ft | 499 kts | 153° |
| 2026-05-04 01:17 | 24.00066 | 135.95721 | 33062 ft | 499 kts | 153° |
| 2026-05-04 01:17 | 23.94089 | 135.99530 | 33068 ft | 499 kts | 153° |
| 2026-05-04 01:18 | 23.88080 | 136.03356 | 33074 ft | 499 kts | 153° |
| 2026-05-04 01:18 | 23.82075 | 136.07175 | 33055 ft | 500 kts | 153° |
| 2026-05-04 01:19 | 23.76058 | 136.10997 | 33072 ft | 500 kts | 153° |
| 2026-05-04 01:19 | 23.70028 | 136.14824 | 33069 ft | 500 kts | 153° |
| 2026-05-04 01:20 | 23.64056 | 136.18610 | 33076 ft | 500 kts | 153° |
| 2026-05-04 01:20 | 23.58040 | 136.22420 | 33071 ft | 500 kts | 153° |
| 2026-05-04 01:21 | 23.52014 | 136.26231 | 33064 ft | 500 kts | 153° |
| 2026-05-04 01:21 | 23.47010 | 136.29394 | 33070 ft | 500 kts | 153° |
| 2026-05-04 01:22 | 23.40994 | 136.33191 | 33066 ft | 500 kts | 152° |
| 2026-05-04 01:22 | 23.33978 | 136.37616 | 33074 ft | 500 kts | 152° |
| 2026-05-04 01:23 | 23.28930 | 136.40796 | 33071 ft | 500 kts | 152° |
| 2026-05-04 01:23 | 23.22929 | 136.44572 | 33071 ft | 500 kts | 152° |
| 2026-05-04 01:24 | 23.16908 | 136.48358 | 33071 ft | 500 kts | 152° |
| 2026-05-04 01:24 | 23.10876 | 136.52146 | 33074 ft | 500 kts | 152° |
| 2026-05-04 01:25 | 23.04832 | 136.55937 | 33070 ft | 500 kts | 152° |
| 2026-05-04 01:25 | 22.98838 | 136.59693 | 33074 ft | 500 kts | 152° |
| 2026-05-04 01:26 | 22.92810 | 136.63467 | 33071 ft | 500 kts | 152° |
| 2026-05-04 01:26 | 22.86764 | 136.67248 | 33071 ft | 501 kts | 152° |
| 2026-05-04 01:27 | 22.80762 | 136.70998 | 33074 ft | 501 kts | 152° |
| 2026-05-04 01:27 | 22.74726 | 136.74765 | 33074 ft | 501 kts | 152° |
| 2026-05-04 01:28 | 22.68669 | 136.78541 | 33075 ft | 501 kts | 152° |
| 2026-05-04 01:28 | 22.62608 | 136.82316 | 33074 ft | 501 kts | 152° |
| 2026-05-04 01:29 | 22.56596 | 136.86057 | 33070 ft | 501 kts | 152° |
| 2026-05-04 01:29 | 22.50532 | 136.89826 | 33071 ft | 501 kts | 152° |
| 2026-05-04 01:30 | 22.44486 | 136.93580 | 33066 ft | 501 kts | 152° |
| 2026-05-04 01:30 | 22.38460 | 136.97318 | 33073 ft | 501 kts | 152° |
| 2026-05-04 01:31 | 22.32400 | 137.01072 | 33073 ft | 502 kts | 152° |
| 2026-05-04 01:31 | 22.26335 | 137.04827 | 33060 ft | 502 kts | 152° |
| 2026-05-04 01:32 | 22.20267 | 137.08580 | 33068 ft | 502 kts | 152° |
| 2026-05-04 01:32 | 22.14245 | 137.12300 | 33069 ft | 502 kts | 152° |
| 2026-05-04 01:33 | 22.08169 | 137.16049 | 33065 ft | 503 kts | 152° |
| 2026-05-04 01:33 | 22.02091 | 137.19797 | 33068 ft | 503 kts | 152° |
| 2026-05-04 01:34 | 21.96011 | 137.23542 | 33059 ft | 503 kts | 152° |
| 2026-05-04 01:34 | 21.89929 | 137.27284 | 33064 ft | 503 kts | 152° |
| 2026-05-04 01:35 | 21.83887 | 137.30998 | 33063 ft | 503 kts | 152° |
| 2026-05-04 01:35 | 21.77804 | 137.34734 | 33060 ft | 503 kts | 152° |
| 2026-05-04 01:36 | 21.71710 | 137.38473 | 33058 ft | 503 kts | 152° |
| 2026-05-04 01:36 | 21.65667 | 137.42176 | 33063 ft | 503 kts | 152° |
| 2026-05-04 01:37 | 21.59572 | 137.45908 | 33060 ft | 503 kts | 152° |
| 2026-05-04 01:37 | 21.53496 | 137.49625 | 33061 ft | 503 kts | 152° |
| 2026-05-04 01:38 | 21.47410 | 137.53345 | 33054 ft | 503 kts | 152° |
| 2026-05-04 01:38 | 21.41354 | 137.57042 | 33061 ft | 503 kts | 152° |
| 2026-05-04 01:39 | 21.35268 | 137.60754 | 33061 ft | 502 kts | 152° |
| 2026-05-04 01:39 | 21.29182 | 137.64463 | 33058 ft | 502 kts | 152° |
| 2026-05-04 01:40 | 21.23138 | 137.68142 | 33057 ft | 502 kts | 152° |
| 2026-05-04 01:40 | 21.17047 | 137.71848 | 33058 ft | 502 kts | 152° |
| 2026-05-04 01:41 | 21.10967 | 137.75543 | 33059 ft | 502 kts | 152° |
| 2026-05-04 01:41 | 21.04897 | 137.79228 | 33055 ft | 502 kts | 152° |
| 2026-05-04 01:42 | 20.98713 | 137.82598 | 33042 ft | 500 kts | 160° |
| 2026-05-04 01:42 | 20.92102 | 137.84857 | 33059 ft | 498 kts | 165° |
| 2026-05-04 01:43 | 20.85445 | 137.86947 | 33054 ft | 498 kts | 165° |
| 2026-05-04 01:43 | 20.78805 | 137.89067 | 33053 ft | 498 kts | 165° |
| 2026-05-04 01:44 | 20.72160 | 137.91213 | 33053 ft | 498 kts | 165° |
| 2026-05-04 01:44 | 20.65557 | 137.93351 | 33049 ft | 499 kts | 165° |
| 2026-05-04 01:45 | 20.58920 | 137.95498 | 33043 ft | 499 kts | 165° |
| 2026-05-04 01:45 | 20.48936 | 137.98721 | 33047 ft | 499 kts | 165° |
| 2026-05-04 01:46 | 20.42285 | 138.00864 | 33049 ft | 499 kts | 165° |
| 2026-05-04 01:46 | 20.35646 | 138.03002 | 33047 ft | 499 kts | 165° |
| 2026-05-04 01:47 | 20.29020 | 138.05135 | 33046 ft | 498 kts | 165° |
| 2026-05-04 01:47 | 20.22417 | 138.07257 | 33043 ft | 498 kts | 165° |
| 2026-05-04 01:48 | 20.15770 | 138.09392 | 33040 ft | 498 kts | 165° |
| 2026-05-04 01:48 | 20.09125 | 138.11525 | 33044 ft | 498 kts | 165° |
| 2026-05-04 01:49 | 20.02480 | 138.13655 | 33042 ft | 498 kts | 165° |
| 2026-05-04 01:49 | 19.95834 | 138.15784 | 33043 ft | 498 kts | 165° |
| 2026-05-04 01:50 | 19.89232 | 138.17897 | 33042 ft | 498 kts | 165° |
| 2026-05-04 01:50 | 19.82585 | 138.20023 | 33038 ft | 498 kts | 165° |
| 2026-05-04 01:51 | 19.75938 | 138.22146 | 33037 ft | 498 kts | 165° |
| 2026-05-04 01:51 | 19.69300 | 138.24265 | 33032 ft | 498 kts | 165° |
| 2026-05-04 01:52 | 19.62651 | 138.26386 | 33038 ft | 498 kts | 165° |
| 2026-05-04 01:52 | 19.56001 | 138.28505 | 33035 ft | 498 kts | 165° |
| 2026-05-04 01:53 | 19.49383 | 138.30613 | 33034 ft | 499 kts | 165° |
| 2026-05-04 01:53 | 19.42730 | 138.32729 | 33036 ft | 499 kts | 165° |
| 2026-05-04 01:54 | 19.36078 | 138.34843 | 33036 ft | 498 kts | 165° |
| 2026-05-04 01:54 | 19.29438 | 138.36952 | 33036 ft | 498 kts | 165° |
| 2026-05-04 01:55 | 19.22830 | 138.39049 | 33028 ft | 498 kts | 165° |
| 2026-05-04 01:55 | 19.16168 | 138.41161 | 33034 ft | 498 kts | 165° |
| 2026-05-04 01:56 | 19.09518 | 138.43268 | 33033 ft | 498 kts | 165° |
| 2026-05-04 01:56 | 19.02876 | 138.45370 | 33031 ft | 499 kts | 165° |
| 2026-05-04 01:57 | 18.96266 | 138.47460 | 33031 ft | 499 kts | 165° |
| 2026-05-04 01:57 | 18.89606 | 138.49565 | 33032 ft | 499 kts | 165° |
| 2026-05-04 01:58 | 18.82942 | 138.51669 | 33027 ft | 499 kts | 165° |
| 2026-05-04 01:58 | 18.76272 | 138.53773 | 33019 ft | 500 kts | 165° |
| 2026-05-04 01:59 | 18.69643 | 138.55862 | 33023 ft | 500 kts | 166° |
| 2026-05-04 01:59 | 18.62965 | 138.57966 | 33029 ft | 500 kts | 166° |
| 2026-05-04 02:00 | 18.56291 | 138.60065 | 33025 ft | 501 kts | 166° |
| 2026-05-04 02:00 | 18.49593 | 138.62172 | 33019 ft | 501 kts | 166° |
| 2026-05-04 02:01 | 18.42912 | 138.64271 | 33021 ft | 501 kts | 166° |
| 2026-05-04 02:01 | 18.36261 | 138.66359 | 33020 ft | 502 kts | 166° |
| 2026-05-04 02:02 | 18.29562 | 138.68460 | 33018 ft | 502 kts | 166° |
| 2026-05-04 02:02 | 18.22861 | 138.70560 | 33017 ft | 502 kts | 166° |
| 2026-05-04 02:03 | 18.16159 | 138.72659 | 33017 ft | 502 kts | 166° |
| 2026-05-04 02:03 | 18.09499 | 138.74743 | 33017 ft | 502 kts | 166° |
| 2026-05-04 02:04 | 18.02804 | 138.76836 | 33008 ft | 502 kts | 166° |
| 2026-05-04 02:04 | 17.96083 | 138.78936 | 33014 ft | 503 kts | 166° |
| 2026-05-04 02:05 | 17.89379 | 138.81028 | 33012 ft | 503 kts | 166° |
| 2026-05-04 02:05 | 17.82704 | 138.83110 | 33011 ft | 503 kts | 166° |
| 2026-05-04 02:06 | 17.75980 | 138.85206 | 33008 ft | 504 kts | 166° |
| 2026-05-04 02:06 | 17.69264 | 138.87298 | 33012 ft | 504 kts | 166° |
| 2026-05-04 02:07 | 17.62545 | 138.89388 | 33009 ft | 504 kts | 166° |
| 2026-05-04 02:07 | 17.55831 | 138.91476 | 33002 ft | 504 kts | 166° |
| 2026-05-04 02:08 | 17.49147 | 138.93553 | 33007 ft | 503 kts | 166° |
| 2026-05-04 02:08 | 17.42425 | 138.95640 | 33003 ft | 503 kts | 166° |
| 2026-05-04 02:09 | 17.35708 | 138.97724 | 33002 ft | 503 kts | 166° |
| 2026-05-04 02:09 | 17.29008 | 138.99801 | 33000 ft | 502 kts | 166° |
| 2026-05-04 02:10 | 17.22314 | 139.01874 | 33000 ft | 501 kts | 166° |
| 2026-05-04 02:10 | 17.16753 | 139.03596 | 32995 ft | 500 kts | 166° |
| 2026-05-04 02:11 | 17.09006 | 139.05992 | 32988 ft | 499 kts | 166° |
| 2026-05-04 02:11 | 17.02351 | 139.08048 | 32987 ft | 499 kts | 166° |
| 2026-05-04 02:12 | 16.96770 | 139.09772 | 32987 ft | 499 kts | 166° |
| 2026-05-04 02:12 | 16.90142 | 139.11817 | 32994 ft | 500 kts | 166° |
| 2026-05-04 02:13 | 16.83462 | 139.13877 | 32995 ft | 500 kts | 166° |
| 2026-05-04 02:13 | 16.76767 | 139.15941 | 32988 ft | 500 kts | 166° |
| 2026-05-04 02:14 | 16.70091 | 139.17997 | 32988 ft | 500 kts | 166° |
| 2026-05-04 02:14 | 16.63447 | 139.20041 | 32988 ft | 500 kts | 166° |
| 2026-05-04 02:15 | 16.56750 | 139.22101 | 32979 ft | 500 kts | 166° |
| 2026-05-04 02:15 | 16.50113 | 139.24141 | 32984 ft | 500 kts | 166° |
| 2026-05-04 02:16 | 16.43447 | 139.26188 | 32994 ft | 499 kts | 166° |
| 2026-05-04 02:16 | 16.36774 | 139.28235 | 32994 ft | 499 kts | 166° |
| 2026-05-04 02:17 | 16.30105 | 139.30280 | 32983 ft | 499 kts | 166° |
| 2026-05-04 02:17 | 16.23440 | 139.32322 | 32974 ft | 498 kts | 166° |
| 2026-05-04 02:18 | 16.16812 | 139.34352 | 32973 ft | 498 kts | 166° |
| 2026-05-04 02:18 | 16.10154 | 139.36389 | 32969 ft | 498 kts | 166° |
| 2026-05-04 02:19 | 16.03497 | 139.38424 | 32976 ft | 498 kts | 166° |
| 2026-05-04 02:19 | 15.96866 | 139.40450 | 32971 ft | 498 kts | 166° |
| 2026-05-04 02:20 | 15.90211 | 139.42482 | 32973 ft | 498 kts | 166° |
| 2026-05-04 02:20 | 15.83559 | 139.44512 | 32970 ft | 498 kts | 166° |
| 2026-05-04 02:21 | 15.76951 | 139.46527 | 32973 ft | 498 kts | 166° |
| 2026-05-04 02:21 | 15.70298 | 139.48554 | 32970 ft | 498 kts | 166° |
| 2026-05-04 02:22 | 15.63655 | 139.50577 | 32971 ft | 498 kts | 166° |
| 2026-05-04 02:22 | 15.56999 | 139.52602 | 32964 ft | 498 kts | 166° |
| 2026-05-04 02:23 | 15.50353 | 139.54623 | 32965 ft | 498 kts | 166° |
| 2026-05-04 02:23 | 15.43737 | 139.56634 | 32965 ft | 498 kts | 166° |
| 2026-05-04 02:24 | 15.37074 | 139.58657 | 32964 ft | 498 kts | 166° |
| 2026-05-04 02:24 | 15.30420 | 139.60677 | 32964 ft | 498 kts | 166° |
| 2026-05-04 02:25 | 15.23758 | 139.62697 | 32962 ft | 498 kts | 166° |
| 2026-05-04 02:25 | 15.17097 | 139.64716 | 32961 ft | 498 kts | 166° |
| 2026-05-04 02:26 | 15.10484 | 139.66720 | 32957 ft | 498 kts | 166° |
| 2026-05-04 02:26 | 15.03830 | 139.68733 | 32959 ft | 497 kts | 166° |
| 2026-05-04 02:27 | 14.97181 | 139.70745 | 32957 ft | 497 kts | 166° |
| 2026-05-04 02:27 | 14.90538 | 139.72753 | 32960 ft | 497 kts | 166° |
| 2026-05-04 02:28 | 14.83942 | 139.74746 | 32956 ft | 497 kts | 166° |
| 2026-05-04 02:28 | 14.77302 | 139.76750 | 32955 ft | 496 kts | 165° |
| 2026-05-04 02:29 | 14.70698 | 139.78743 | 32954 ft | 496 kts | 166° |
| 2026-05-04 02:29 | 14.64054 | 139.80747 | 32954 ft | 496 kts | 165° |
| 2026-05-04 02:30 | 14.57409 | 139.82749 | 32953 ft | 496 kts | 166° |
| 2026-05-04 02:30 | 14.50829 | 139.84731 | 32954 ft | 496 kts | 166° |
| 2026-05-04 02:31 | 14.44181 | 139.86732 | 32951 ft | 496 kts | 166° |
| 2026-05-04 02:31 | 14.37542 | 139.88729 | 32951 ft | 496 kts | 166° |
| 2026-05-04 02:32 | 14.30916 | 139.90720 | 32952 ft | 496 kts | 166° |
| 2026-05-04 02:32 | 14.24322 | 139.92702 | 32949 ft | 496 kts | 166° |
| 2026-05-04 02:33 | 14.17697 | 139.94691 | 32945 ft | 496 kts | 165° |
| 2026-05-04 02:33 | 14.11053 | 139.96685 | 32945 ft | 496 kts | 165° |
| 2026-05-04 02:34 | 14.04464 | 139.98661 | 32936 ft | 496 kts | 165° |
| 2026-05-04 02:34 | 13.97830 | 140.00673 | 32945 ft | 497 kts | 164° |
| 2026-05-04 02:35 | 13.91262 | 140.02890 | 32947 ft | 497 kts | 163° |
| 2026-05-04 02:35 | 13.84694 | 140.05182 | 32941 ft | 498 kts | 163° |
| 2026-05-04 02:36 | 13.78111 | 140.07456 | 32943 ft | 498 kts | 163° |
| 2026-05-04 02:36 | 13.71562 | 140.09693 | 32945 ft | 498 kts | 163° |
| 2026-05-04 02:37 | 13.64981 | 140.11927 | 32936 ft | 498 kts | 163° |
| 2026-05-04 02:37 | 13.58379 | 140.14172 | 32946 ft | 498 kts | 163° |
| 2026-05-04 02:38 | 13.51787 | 140.16412 | 32935 ft | 497 kts | 163° |
| 2026-05-04 02:38 | 13.45261 | 140.18629 | 32939 ft | 496 kts | 163° |
| 2026-05-04 02:39 | 13.38706 | 140.20852 | 32928 ft | 497 kts | 163° |
| 2026-05-04 02:39 | 13.32134 | 140.23084 | 32940 ft | 497 kts | 163° |
| 2026-05-04 02:40 | 13.25550 | 140.25316 | 32936 ft | 497 kts | 163° |
| 2026-05-04 02:40 | 13.19015 | 140.27530 | 32930 ft | 495 kts | 163° |
| 2026-05-04 02:41 | 13.12467 | 140.29747 | 32930 ft | 493 kts | 163° |
| 2026-05-04 02:41 | 13.05970 | 140.31949 | 32933 ft | 491 kts | 162° |
| 2026-05-04 02:42 | 12.99528 | 140.34128 | 32928 ft | 490 kts | 162° |
| 2026-05-04 02:42 | 12.93048 | 140.36317 | 32930 ft | 490 kts | 162° |
| 2026-05-04 02:43 | 12.86576 | 140.38504 | 32932 ft | 490 kts | 162° |
| 2026-05-04 02:43 | 12.80088 | 140.40695 | 32928 ft | 491 kts | 162° |
| 2026-05-04 02:44 | 12.73612 | 140.42881 | 32929 ft | 491 kts | 162° |
| 2026-05-04 02:44 | 12.67236 | 140.45033 | 32913 ft | 473 kts | 162° |
| 2026-05-04 02:45 | 12.60974 | 140.47145 | 32931 ft | 478 kts | 162° |
| 2026-05-04 02:45 | 12.54637 | 140.49280 | 32934 ft | 480 kts | 162° |
| 2026-05-04 02:46 | 12.48311 | 140.51411 | 32920 ft | 477 kts | 162° |
| 2026-05-04 02:46 | 12.42025 | 140.53527 | 32916 ft | 476 kts | 162° |
| 2026-05-04 02:47 | 12.35769 | 140.55632 | 32929 ft | 476 kts | 162° |
| 2026-05-04 02:47 | 12.29456 | 140.57756 | 32918 ft | 478 kts | 162° |
| 2026-05-04 02:48 | 12.23121 | 140.59885 | 32934 ft | 480 kts | 162° |
| 2026-05-04 02:48 | 12.16756 | 140.62022 | 32920 ft | 482 kts | 161° |
| 2026-05-04 02:49 | 12.10403 | 140.64157 | 32922 ft | 483 kts | 161° |
| 2026-05-04 02:49 | 12.04006 | 140.66305 | 32920 ft | 484 kts | 161° |
| 2026-05-04 02:50 | 11.97601 | 140.68453 | 32920 ft | 484 kts | 161° |
| 2026-05-04 02:50 | 11.91192 | 140.70602 | 32921 ft | 484 kts | 161° |
| 2026-05-04 02:51 | 11.84831 | 140.72734 | 32920 ft | 483 kts | 161° |
| 2026-05-04 02:51 | 11.78457 | 140.74870 | 32915 ft | 481 kts | 161° |
| 2026-05-04 02:52 | 11.72094 | 140.77002 | 32913 ft | 480 kts | 161° |
| 2026-05-04 02:52 | 11.65748 | 140.79124 | 32923 ft | 480 kts | 161° |
| 2026-05-04 02:53 | 11.59408 | 140.81246 | 32910 ft | 479 kts | 161° |
| 2026-05-04 02:53 | 11.53081 | 140.83361 | 32916 ft | 477 kts | 161° |
| 2026-05-04 02:54 | 11.46809 | 140.85457 | 32910 ft | 475 kts | 161° |
| 2026-05-04 02:54 | 11.40533 | 140.87553 | 32911 ft | 474 kts | 161° |
| 2026-05-04 02:55 | 11.31116 | 140.90700 | 32905 ft | 475 kts | 161° |
| 2026-05-04 02:56 | 11.24816 | 140.92803 | 32915 ft | 476 kts | 160° |
| 2026-05-04 02:56 | 11.18501 | 140.94915 | 32906 ft | 479 kts | 161° |
| 2026-05-04 02:57 | 11.12134 | 140.97030 | 32917 ft | 481 kts | 161° |
| 2026-05-04 02:57 | 11.05809 | 140.99138 | 32916 ft | 482 kts | 160° |
| 2026-05-04 02:58 | 10.99434 | 141.01259 | 32902 ft | 481 kts | 160° |
| 2026-05-04 02:58 | 10.93068 | 141.03378 | 32908 ft | 480 kts | 160° |
| 2026-05-04 02:59 | 10.86718 | 141.05486 | 32900 ft | 480 kts | 161° |
| 2026-05-04 02:59 | 10.80358 | 141.07602 | 32911 ft | 480 kts | 161° |
| 2026-05-04 03:00 | 10.74013 | 141.09714 | 32907 ft | 480 kts | 161° |
| 2026-05-04 03:00 | 10.67696 | 141.11814 | 32915 ft | 479 kts | 160° |
| 2026-05-04 03:01 | 10.62427 | 141.13565 | 32910 ft | 477 kts | 160° |
| 2026-05-04 03:01 | 10.56120 | 141.15658 | 32901 ft | 475 kts | 160° |
| 2026-05-04 03:02 | 10.49825 | 141.17746 | 32900 ft | 474 kts | 160° |
| 2026-05-04 03:02 | 10.43595 | 141.19813 | 32904 ft | 473 kts | 160° |
| 2026-05-04 03:03 | 10.37333 | 141.21890 | 32904 ft | 474 kts | 160° |
| 2026-05-04 03:03 | 10.31051 | 141.23972 | 32905 ft | 475 kts | 160° |
| 2026-05-04 03:04 | 10.24762 | 141.26057 | 32901 ft | 476 kts | 160° |
| 2026-05-04 03:04 | 10.18465 | 141.28143 | 32901 ft | 477 kts | 160° |
| 2026-05-04 03:05 | 10.12147 | 141.30234 | 32896 ft | 478 kts | 160° |
| 2026-05-04 03:05 | 10.05815 | 141.32328 | 32894 ft | 478 kts | 160° |
| 2026-05-04 03:06 | 9.99480 | 141.34423 | 32894 ft | 479 kts | 160° |
| 2026-05-04 03:06 | 9.93171 | 141.36509 | 32900 ft | 480 kts | 160° |
| 2026-05-04 03:07 | 9.86805 | 141.38615 | 32901 ft | 481 kts | 160° |
| 2026-05-04 03:07 | 9.80425 | 141.40723 | 32900 ft | 482 kts | 160° |
| 2026-05-04 03:08 | 9.74047 | 141.42828 | 32895 ft | 483 kts | 160° |
| 2026-05-04 03:08 | 9.67649 | 141.44940 | 32896 ft | 483 kts | 160° |
| 2026-05-04 03:09 | 9.61295 | 141.47036 | 32893 ft | 484 kts | 160° |
| 2026-05-04 03:09 | 9.54882 | 141.49152 | 32895 ft | 484 kts | 160° |
| 2026-05-04 03:10 | 9.48456 | 141.51270 | 32892 ft | 484 kts | 160° |
| 2026-05-04 03:10 | 9.42062 | 141.53377 | 32896 ft | 482 kts | 160° |
| 2026-05-04 03:11 | 9.35716 | 141.55468 | 32891 ft | 480 kts | 160° |
| 2026-05-04 03:11 | 9.29374 | 141.57556 | 32891 ft | 479 kts | 160° |
| 2026-05-04 03:12 | 9.23041 | 141.59641 | 32890 ft | 478 kts | 160° |
| 2026-05-04 03:12 | 9.16716 | 141.61723 | 32890 ft | 477 kts | 160° |
| 2026-05-04 03:13 | 9.10400 | 141.63801 | 32889 ft | 478 kts | 160° |
| 2026-05-04 03:13 | 9.04108 | 141.65870 | 32888 ft | 478 kts | 160° |
| 2026-05-04 03:14 | 8.97775 | 141.67951 | 32888 ft | 479 kts | 160° |
| 2026-05-04 03:14 | 8.91425 | 141.70038 | 32890 ft | 480 kts | 160° |
| 2026-05-04 03:15 | 8.85055 | 141.72130 | 32887 ft | 480 kts | 160° |
| 2026-05-04 03:15 | 8.78733 | 141.74206 | 32885 ft | 480 kts | 160° |
| 2026-05-04 03:16 | 8.72367 | 141.76296 | 32884 ft | 481 kts | 160° |
| 2026-05-04 03:16 | 8.66010 | 141.78381 | 32884 ft | 480 kts | 160° |
| 2026-05-04 03:17 | 8.59641 | 141.80470 | 32884 ft | 481 kts | 160° |
| 2026-05-04 03:17 | 8.53270 | 141.82559 | 32885 ft | 481 kts | 160° |
| 2026-05-04 03:18 | 8.46894 | 141.84649 | 32886 ft | 481 kts | 160° |
| 2026-05-04 03:18 | 8.40568 | 141.86722 | 32885 ft | 481 kts | 160° |
| 2026-05-04 03:19 | 8.34177 | 141.88815 | 32882 ft | 481 kts | 160° |
| 2026-05-04 03:19 | 8.27792 | 141.90906 | 32882 ft | 482 kts | 160° |
| 2026-05-04 03:20 | 8.21424 | 141.92991 | 32884 ft | 482 kts | 160° |
| 2026-05-04 03:20 | 8.15038 | 141.95081 | 32871 ft | 482 kts | 160° |
| 2026-05-04 03:21 | 8.08673 | 141.97163 | 32881 ft | 482 kts | 160° |
| 2026-05-04 03:21 | 8.02329 | 141.99238 | 32881 ft | 482 kts | 160° |
| 2026-05-04 03:22 | 7.95892 | 142.01100 | 32883 ft | 482 kts | 164° |
| 2026-05-04 03:22 | 7.89366 | 142.02722 | 32877 ft | 481 kts | 164° |
| 2026-05-04 03:23 | 7.82865 | 142.04327 | 32879 ft | 481 kts | 164° |
| 2026-05-04 03:23 | 7.76361 | 142.05952 | 32884 ft | 481 kts | 163° |
| 2026-05-04 03:24 | 7.69856 | 142.07588 | 32886 ft | 481 kts | 163° |
| 2026-05-04 03:24 | 7.63354 | 142.09227 | 32888 ft | 482 kts | 163° |
| 2026-05-04 03:25 | 7.56877 | 142.10857 | 32886 ft | 483 kts | 163° |
| 2026-05-04 03:25 | 7.50352 | 142.12499 | 32871 ft | 483 kts | 163° |
| 2026-05-04 03:26 | 7.43830 | 142.14139 | 32884 ft | 484 kts | 163° |
| 2026-05-04 03:26 | 7.37299 | 142.15781 | 32879 ft | 484 kts | 163° |
| 2026-05-04 03:27 | 7.30752 | 142.17426 | 32876 ft | 484 kts | 163° |
| 2026-05-04 03:27 | 7.24202 | 142.19071 | 32889 ft | 484 kts | 163° |
| 2026-05-04 03:28 | 7.17694 | 142.20706 | 32867 ft | 485 kts | 163° |
| 2026-05-04 03:28 | 7.11129 | 142.22355 | 32890 ft | 486 kts | 163° |
| 2026-05-04 03:29 | 7.04559 | 142.24004 | 32873 ft | 487 kts | 163° |
| 2026-05-04 03:29 | 6.97969 | 142.25658 | 32876 ft | 488 kts | 163° |
| 2026-05-04 03:30 | 6.91359 | 142.27315 | 32889 ft | 488 kts | 164° |
| 2026-05-04 03:30 | 6.84768 | 142.28968 | 32877 ft | 489 kts | 164° |
| 2026-05-04 03:31 | 6.78204 | 142.30614 | 32880 ft | 489 kts | 164° |
| 2026-05-04 03:31 | 6.71604 | 142.32268 | 32879 ft | 489 kts | 164° |
| 2026-05-04 03:32 | 6.65005 | 142.33922 | 32877 ft | 489 kts | 164° |
| 2026-05-04 03:32 | 6.58414 | 142.35572 | 32878 ft | 483 kts | 164° |
| 2026-05-04 03:33 | 6.51948 | 142.37190 | 32865 ft | 476 kts | 164° |
| 2026-05-04 03:33 | 6.45500 | 142.38806 | 32880 ft | 478 kts | 164° |
| 2026-05-04 03:34 | 6.39070 | 142.40416 | 32878 ft | 479 kts | 164° |
| 2026-05-04 03:34 | 6.32602 | 142.42035 | 32872 ft | 480 kts | 164° |
| 2026-05-04 03:35 | 6.26101 | 142.43661 | 32872 ft | 480 kts | 164° |
| 2026-05-04 03:35 | 6.19606 | 142.45285 | 32872 ft | 481 kts | 164° |
| 2026-05-04 03:36 | 6.13109 | 142.46910 | 32870 ft | 480 kts | 164° |
| 2026-05-04 03:36 | 6.06671 | 142.48519 | 32874 ft | 480 kts | 164° |
| 2026-05-04 03:37 | 6.00180 | 142.50142 | 32872 ft | 480 kts | 165° |
| 2026-05-04 03:37 | 5.93688 | 142.51764 | 32875 ft | 480 kts | 165° |
| 2026-05-04 03:38 | 5.87200 | 142.53384 | 32873 ft | 481 kts | 164° |
| 2026-05-04 03:38 | 5.80695 | 142.55009 | 32874 ft | 481 kts | 164° |
| 2026-05-04 03:39 | 5.74226 | 142.56624 | 32868 ft | 482 kts | 165° |
| 2026-05-04 03:39 | 5.67706 | 142.58252 | 32872 ft | 483 kts | 165° |
| 2026-05-04 03:40 | 5.61177 | 142.59881 | 32873 ft | 483 kts | 165° |
| 2026-05-04 03:40 | 5.54642 | 142.61512 | 32868 ft | 484 kts | 165° |
| 2026-05-04 03:41 | 5.48113 | 142.63140 | 32870 ft | 484 kts | 165° |
| 2026-05-04 03:41 | 5.41607 | 142.64763 | 32872 ft | 483 kts | 165° |
| 2026-05-04 03:42 | 5.35074 | 142.66392 | 32869 ft | 483 kts | 165° |
| 2026-05-04 03:42 | 5.28550 | 142.68018 | 32867 ft | 482 kts | 165° |
| 2026-05-04 03:43 | 5.22043 | 142.69640 | 32871 ft | 482 kts | 165° |
| 2026-05-04 03:43 | 5.15565 | 142.71254 | 32870 ft | 481 kts | 165° |
| 2026-05-04 03:44 | 5.09046 | 142.72878 | 32866 ft | 481 kts | 165° |
| 2026-05-04 03:44 | 5.02549 | 142.74497 | 32871 ft | 481 kts | 165° |
| 2026-05-04 03:45 | 4.96082 | 142.76107 | 32868 ft | 481 kts | 165° |
| 2026-05-04 03:45 | 4.89559 | 142.77731 | 32872 ft | 482 kts | 165° |
| 2026-05-04 03:46 | 4.83042 | 142.79354 | 32872 ft | 482 kts | 165° |
| 2026-05-04 03:46 | 4.76552 | 142.80969 | 32870 ft | 483 kts | 165° |
| 2026-05-04 03:47 | 4.70011 | 142.82596 | 32871 ft | 483 kts | 165° |
| 2026-05-04 03:47 | 4.63487 | 142.84219 | 32870 ft | 483 kts | 165° |
| 2026-05-04 03:48 | 4.56995 | 142.85834 | 32871 ft | 483 kts | 165° |
| 2026-05-04 03:48 | 4.50464 | 142.87458 | 32870 ft | 484 kts | 165° |
| 2026-05-04 03:49 | 4.43913 | 142.89087 | 32874 ft | 485 kts | 165° |
| 2026-05-04 03:49 | 4.38465 | 142.90441 | 32873 ft | 485 kts | 165° |
| 2026-05-04 03:50 | 4.30820 | 142.92342 | 32868 ft | 486 kts | 165° |
| 2026-05-04 03:50 | 4.24252 | 142.93974 | 32871 ft | 486 kts | 165° |
| 2026-05-04 03:51 | 4.18798 | 142.95329 | 32867 ft | 485 kts | 165° |
| 2026-05-04 03:51 | 4.12236 | 142.96960 | 32870 ft | 485 kts | 165° |
| 2026-05-04 03:52 | 4.05678 | 142.98589 | 32867 ft | 485 kts | 165° |
| 2026-05-04 03:52 | 3.99125 | 143.00217 | 32871 ft | 484 kts | 165° |
| 2026-05-04 03:53 | 3.92625 | 143.01843 | 32868 ft | 483 kts | 165° |
| 2026-05-04 03:53 | 3.86098 | 143.03481 | 32866 ft | 482 kts | 164° |
| 2026-05-04 03:54 | 3.79585 | 143.05116 | 32866 ft | 481 kts | 165° |
| 2026-05-04 03:54 | 3.73083 | 143.06747 | 32870 ft | 481 kts | 165° |
| 2026-05-04 03:55 | 3.66629 | 143.08365 | 32867 ft | 481 kts | 165° |
| 2026-05-04 03:55 | 3.60123 | 143.09995 | 32862 ft | 482 kts | 164° |
| 2026-05-04 03:56 | 3.53627 | 143.11623 | 32869 ft | 484 kts | 164° |
| 2026-05-04 03:56 | 3.47086 | 143.13262 | 32866 ft | 485 kts | 164° |
| 2026-05-04 03:57 | 3.40518 | 143.14908 | 32863 ft | 486 kts | 164° |
| 2026-05-04 03:57 | 3.33941 | 143.16555 | 32866 ft | 487 kts | 164° |
| 2026-05-04 03:58 | 3.24122 | 143.19013 | 32867 ft | 486 kts | 164° |
| 2026-05-04 03:58 | 3.17556 | 143.20657 | 32863 ft | 485 kts | 164° |
| 2026-05-04 03:59 | 3.10999 | 143.22299 | 32862 ft | 485 kts | 164° |
| 2026-05-04 03:59 | 3.04449 | 143.23939 | 32877 ft | 484 kts | 165° |
| 2026-05-04 04:00 | 2.97916 | 143.25573 | 32868 ft | 483 kts | 165° |
| 2026-05-04 04:00 | 2.91405 | 143.27202 | 32868 ft | 482 kts | 165° |
| 2026-05-04 04:01 | 2.84888 | 143.28834 | 32864 ft | 482 kts | 165° |
| 2026-05-04 04:01 | 2.78410 | 143.30455 | 32867 ft | 483 kts | 165° |
| 2026-05-04 04:02 | 2.71880 | 143.32089 | 32862 ft | 484 kts | 165° |
| 2026-05-04 04:02 | 2.65317 | 143.33731 | 32872 ft | 487 kts | 165° |
| 2026-05-04 04:03 | 2.58722 | 143.35380 | 32871 ft | 489 kts | 165° |
| 2026-05-04 04:03 | 2.52145 | 143.37025 | 32864 ft | 490 kts | 165° |
| 2026-05-04 04:04 | 2.45513 | 143.38683 | 32864 ft | 491 kts | 165° |
| 2026-05-04 04:04 | 2.38908 | 143.40334 | 32868 ft | 488 kts | 165° |
| 2026-05-04 04:05 | 2.32338 | 143.41977 | 32861 ft | 484 kts | 165° |
| 2026-05-04 04:05 | 2.25807 | 143.43609 | 32858 ft | 482 kts | 165° |
| 2026-05-04 04:06 | 2.19345 | 143.45225 | 32863 ft | 481 kts | 165° |
| 2026-05-04 04:06 | 2.12833 | 143.46853 | 32865 ft | 481 kts | 165° |
| 2026-05-04 04:07 | 2.06319 | 143.48481 | 32866 ft | 483 kts | 165° |
| 2026-05-04 04:07 | 1.99817 | 143.50106 | 32867 ft | 484 kts | 165° |
| 2026-05-04 04:08 | 1.93262 | 143.51744 | 32869 ft | 487 kts | 165° |
| 2026-05-04 04:08 | 1.86680 | 143.53389 | 32867 ft | 489 kts | 165° |
| 2026-05-04 04:09 | 1.80067 | 143.55041 | 32863 ft | 490 kts | 165° |
| 2026-05-04 04:09 | 1.73445 | 143.56695 | 32865 ft | 490 kts | 165° |
| 2026-05-04 04:10 | 1.66866 | 143.58338 | 32863 ft | 490 kts | 165° |
| 2026-05-04 04:10 | 1.60234 | 143.59995 | 32867 ft | 489 kts | 165° |
| 2026-05-04 04:11 | 1.53632 | 143.61644 | 32865 ft | 488 kts | 165° |
| 2026-05-04 04:11 | 1.47043 | 143.63289 | 32864 ft | 487 kts | 165° |
| 2026-05-04 04:12 | 1.40463 | 143.64933 | 32866 ft | 487 kts | 165° |
| 2026-05-04 04:12 | 1.33937 | 143.66563 | 32863 ft | 486 kts | 165° |
| 2026-05-04 04:13 | 1.27364 | 143.68204 | 32859 ft | 486 kts | 165° |
| 2026-05-04 04:13 | 1.20802 | 143.69843 | 32861 ft | 485 kts | 165° |
| 2026-05-04 04:14 | 1.14241 | 143.71481 | 32862 ft | 485 kts | 165° |
| 2026-05-04 04:14 | 1.07734 | 143.73105 | 32859 ft | 484 kts | 165° |
| 2026-05-04 04:15 | 1.01191 | 143.74739 | 32866 ft | 484 kts | 165° |
| 2026-05-04 04:15 | 0.94647 | 143.76373 | 32860 ft | 483 kts | 165° |
| 2026-05-04 04:16 | 0.88113 | 143.78004 | 32854 ft | 483 kts | 165° |
| 2026-05-04 04:16 | 0.81618 | 143.79626 | 32858 ft | 483 kts | 165° |
| 2026-05-04 04:17 | 0.75077 | 143.81258 | 32859 ft | 483 kts | 165° |
| 2026-05-04 04:17 | 0.68537 | 143.82891 | 32861 ft | 484 kts | 165° |
| 2026-05-04 04:18 | 0.62037 | 143.84514 | 32856 ft | 484 kts | 165° |
| 2026-05-04 04:18 | 0.55505 | 143.86144 | 32857 ft | 484 kts | 165° |
| 2026-05-04 04:19 | 0.48965 | 143.87777 | 32857 ft | 484 kts | 165° |
| 2026-05-04 04:19 | 0.42432 | 143.89408 | 32856 ft | 484 kts | 165° |
| 2026-05-04 04:20 | 0.35884 | 143.91042 | 32849 ft | 484 kts | 165° |
| 2026-05-04 04:20 | 0.29346 | 143.92674 | 32852 ft | 484 kts | 165° |
| 2026-05-04 04:21 | 0.22793 | 143.94309 | 32853 ft | 484 kts | 165° |
| 2026-05-04 04:21 | 0.16302 | 143.95930 | 32852 ft | 484 kts | 165° |
| 2026-05-04 04:22 | 0.09766 | 143.97562 | 32851 ft | 484 kts | 165° |
| 2026-05-04 04:22 | 0.03231 | 143.99192 | 32849 ft | 484 kts | 165° |
| 2026-05-04 04:23 | -0.03385 | 144.00219 | 32852 ft | 486 kts | 176° |
| 2026-05-04 04:23 | -0.10138 | 144.00410 | 32854 ft | 485 kts | 177° |
| 2026-05-04 04:24 | -0.16898 | 144.00582 | 32848 ft | 485 kts | 176° |
| 2026-05-04 04:24 | -0.23652 | 144.00784 | 32850 ft | 485 kts | 176° |
| 2026-05-04 04:25 | -0.30358 | 144.01004 | 32849 ft | 485 kts | 176° |
| 2026-05-04 04:25 | -0.37107 | 144.01230 | 32852 ft | 485 kts | 176° |
| 2026-05-04 04:26 | -0.43866 | 144.01456 | 32846 ft | 484 kts | 176° |
| 2026-05-04 04:26 | -0.50567 | 144.01679 | 32847 ft | 484 kts | 176° |
| 2026-05-04 04:27 | -0.57312 | 144.01903 | 32847 ft | 484 kts | 176° |
| 2026-05-04 04:27 | -0.64058 | 144.02127 | 32843 ft | 484 kts | 176° |
| 2026-05-04 04:28 | -0.70818 | 144.02351 | 32845 ft | 485 kts | 176° |
| 2026-05-04 04:28 | -0.77536 | 144.02574 | 32848 ft | 485 kts | 176° |
| 2026-05-04 04:29 | -0.84278 | 144.02798 | 32846 ft | 485 kts | 176° |
| 2026-05-04 04:29 | -0.91034 | 144.03023 | 32847 ft | 485 kts | 176° |
| 2026-05-04 04:30 | -0.97778 | 144.03247 | 32845 ft | 485 kts | 176° |
| 2026-05-04 04:30 | -1.04523 | 144.03471 | 32848 ft | 485 kts | 176° |
| 2026-05-04 04:31 | -1.11249 | 144.03694 | 32847 ft | 485 kts | 176° |
| 2026-05-04 04:31 | -1.18021 | 144.03919 | 32847 ft | 485 kts | 176° |
| 2026-05-04 04:32 | -1.24781 | 144.04143 | 32847 ft | 485 kts | 177° |
| 2026-05-04 04:32 | -1.31490 | 144.04366 | 32846 ft | 485 kts | 177° |
| 2026-05-04 04:33 | -1.38247 | 144.04590 | 32847 ft | 484 kts | 177° |
| 2026-05-04 04:33 | -1.44985 | 144.04814 | 32846 ft | 484 kts | 177° |
| 2026-05-04 04:34 | -1.51673 | 144.05036 | 32846 ft | 483 kts | 177° |
| 2026-05-04 04:34 | -1.58402 | 144.05260 | 32848 ft | 483 kts | 178° |
| 2026-05-04 04:35 | -1.65125 | 144.05483 | 32843 ft | 483 kts | 178° |
| 2026-05-04 04:35 | -1.71811 | 144.05705 | 32844 ft | 482 kts | 178° |
| 2026-05-04 04:36 | -1.78529 | 144.05928 | 32843 ft | 482 kts | 178° |
| 2026-05-04 04:36 | -1.85247 | 144.06152 | 32844 ft | 482 kts | 178° |
| 2026-05-04 04:37 | -1.97551 | 144.06561 | 32844 ft | 483 kts | 178° |
| 2026-05-04 04:38 | -2.04289 | 144.06785 | 32845 ft | 483 kts | 178° |
| 2026-05-04 04:38 | -2.10987 | 144.07007 | 32844 ft | 483 kts | 178° |
| 2026-05-04 04:39 | -2.17709 | 144.07231 | 32842 ft | 484 kts | 177° |
| 2026-05-04 04:39 | -2.24454 | 144.07455 | 32845 ft | 484 kts | 177° |
| 2026-05-04 04:40 | -2.31155 | 144.07678 | 32844 ft | 484 kts | 178° |
| 2026-05-04 04:40 | -2.37879 | 144.07901 | 32844 ft | 484 kts | 178° |
| 2026-05-04 04:41 | -2.44612 | 144.08125 | 32844 ft | 483 kts | 178° |
| 2026-05-04 04:41 | -2.51333 | 144.08349 | 32843 ft | 484 kts | 177° |
| 2026-05-04 04:42 | -2.58069 | 144.08573 | 32845 ft | 484 kts | 177° |
| 2026-05-04 04:42 | -2.64808 | 144.08797 | 32844 ft | 484 kts | 177° |
| 2026-05-04 04:43 | -2.71515 | 144.09021 | 32841 ft | 484 kts | 177° |
| 2026-05-04 04:43 | -2.78255 | 144.09245 | 32843 ft | 484 kts | 177° |
| 2026-05-04 04:44 | -2.84986 | 144.09469 | 32841 ft | 484 kts | 177° |
| 2026-05-04 04:44 | -2.91691 | 144.09692 | 32841 ft | 484 kts | 177° |
| 2026-05-04 04:45 | -2.98442 | 144.09917 | 32841 ft | 484 kts | 177° |
| 2026-05-04 04:47 | -3.22012 | 144.10702 | 32850 ft | 486 kts | 177° |
| 2026-05-04 04:47 | -3.28736 | 144.10926 | 32842 ft | 487 kts | 177° |
| 2026-05-04 04:48 | -3.35525 | 144.11152 | 32848 ft | 487 kts | 177° |
| 2026-05-04 04:49 | -3.52452 | 144.11716 | 32846 ft | 488 kts | 177° |
| 2026-05-04 04:49 | -3.59265 | 144.11943 | 32843 ft | 489 kts | 177° |
| 2026-05-04 04:50 | -3.66072 | 144.12170 | 32844 ft | 489 kts | 177° |
| 2026-05-04 04:50 | -3.72869 | 144.12397 | 32844 ft | 489 kts | 177° |
| 2026-05-04 04:51 | -3.79630 | 144.12622 | 32841 ft | 489 kts | 177° |
| 2026-05-04 04:51 | -3.86422 | 144.12848 | 32841 ft | 488 kts | 177° |
| 2026-05-04 04:52 | -3.93229 | 144.13075 | 32841 ft | 488 kts | 177° |
| 2026-05-04 04:52 | -4.00028 | 144.13302 | 32839 ft | 488 kts | 177° |
| 2026-05-04 04:53 | -4.06771 | 144.13527 | 32845 ft | 486 kts | 177° |
| 2026-05-04 04:53 | -4.13511 | 144.13752 | 32830 ft | 483 kts | 177° |
| 2026-05-04 04:54 | -4.20228 | 144.13976 | 32829 ft | 481 kts | 177° |
| 2026-05-04 04:54 | -4.26933 | 144.14200 | 32829 ft | 480 kts | 177° |
| 2026-05-04 04:55 | -4.33610 | 144.14423 | 32833 ft | 480 kts | 177° |
| 2026-05-04 04:55 | -4.40264 | 144.14645 | 32829 ft | 480 kts | 177° |
| 2026-05-04 04:56 | -4.46962 | 144.14869 | 32832 ft | 480 kts | 177° |
| 2026-05-04 04:56 | -4.53605 | 144.15091 | 32829 ft | 480 kts | 177° |
| 2026-05-04 04:57 | -4.60282 | 144.15314 | 32841 ft | 480 kts | 177° |
| 2026-05-04 04:57 | -4.66980 | 144.15538 | 32845 ft | 480 kts | 177° |
| 2026-05-04 04:58 | -4.73664 | 144.15761 | 32858 ft | 480 kts | 177° |
| 2026-05-04 04:58 | -4.80341 | 144.15984 | 32856 ft | 479 kts | 177° |
| 2026-05-04 04:59 | -4.86978 | 144.16206 | 32873 ft | 479 kts | 177° |
| 2026-05-04 04:59 | -4.93656 | 144.16430 | 32869 ft | 480 kts | 177° |
| 2026-05-04 05:00 | -5.00282 | 144.16651 | 32886 ft | 478 kts | 177° |
| 2026-05-04 05:01 | -5.10293 | 144.16986 | 32902 ft | 477 kts | 177° |
| 2026-05-04 05:01 | -5.16891 | 144.17207 | 32897 ft | 477 kts | 177° |
| 2026-05-04 05:02 | -5.23531 | 144.17429 | 32915 ft | 477 kts | 177° |
| 2026-05-04 05:02 | -5.30170 | 144.17652 | 32910 ft | 478 kts | 177° |
| 2026-05-04 05:03 | -5.36838 | 144.17875 | 32924 ft | 480 kts | 178° |
| 2026-05-04 05:04 | -5.50220 | 144.18323 | 32934 ft | 482 kts | 177° |
| 2026-05-04 05:04 | -5.56887 | 144.18546 | 32953 ft | 482 kts | 177° |
| 2026-05-04 05:06 | -5.83721 | 144.19446 | 32973 ft | 483 kts | 178° |
| 2026-05-04 05:07 | -5.90444 | 144.19672 | 32971 ft | 483 kts | 177° |
| 2026-05-04 05:07 | -5.97173 | 144.19898 | 32968 ft | 482 kts | 177° |
| 2026-05-04 05:09 | -6.27347 | 144.20912 | 32956 ft | 485 kts | 177° |
| 2026-05-04 05:10 | -6.34111 | 144.21139 | 32940 ft | 487 kts | 178° |
| 2026-05-04 05:10 | -6.40900 | 144.21367 | 32934 ft | 488 kts | 177° |
| 2026-05-04 05:11 | -6.47684 | 144.21595 | 32920 ft | 487 kts | 178° |
| 2026-05-04 05:11 | -6.54418 | 144.21821 | 32908 ft | 485 kts | 177° |
| 2026-05-04 05:12 | -6.61174 | 144.22048 | 32915 ft | 485 kts | 177° |
| 2026-05-04 05:12 | -6.67933 | 144.22276 | 32889 ft | 485 kts | 177° |
| 2026-05-04 05:13 | -6.74676 | 144.22503 | 32902 ft | 485 kts | 178° |
| 2026-05-04 05:13 | -6.81410 | 144.22730 | 32879 ft | 485 kts | 178° |
| 2026-05-04 05:14 | -6.88174 | 144.22957 | 32881 ft | 486 kts | 177° |
| 2026-05-04 05:14 | -6.94952 | 144.23186 | 32870 ft | 488 kts | 178° |
| 2026-05-04 05:15 | -7.01688 | 144.23413 | 32867 ft | 488 kts | 178° |
| 2026-05-04 05:15 | -7.08476 | 144.23641 | 32852 ft | 487 kts | 177° |
| 2026-05-04 05:16 | -7.15263 | 144.23870 | 32859 ft | 487 kts | 178° |
| 2026-05-04 05:16 | -7.22053 | 144.24099 | 32845 ft | 488 kts | 178° |
| 2026-05-04 05:17 | -7.28847 | 144.24329 | 32840 ft | 488 kts | 178° |
| 2026-05-04 05:17 | -7.35584 | 144.24556 | 32841 ft | 488 kts | 178° |
| 2026-05-04 05:18 | -7.42389 | 144.24801 | 32837 ft | 488 kts | 176° |
| 2026-05-04 05:18 | -7.49118 | 144.25678 | 32837 ft | 487 kts | 170° |
| 2026-05-04 05:19 | -7.55775 | 144.26753 | 32833 ft | 487 kts | 170° |
| 2026-05-04 05:19 | -7.62494 | 144.27825 | 32833 ft | 487 kts | 171° |
| 2026-05-04 05:20 | -7.69207 | 144.28871 | 32832 ft | 488 kts | 171° |
| 2026-05-04 05:20 | -7.75879 | 144.29898 | 32834 ft | 488 kts | 171° |
| 2026-05-04 05:21 | -7.82594 | 144.30932 | 32836 ft | 487 kts | 171° |
| 2026-05-04 05:21 | -7.89304 | 144.31966 | 32836 ft | 487 kts | 171° |
| 2026-05-04 05:22 | -7.96012 | 144.33001 | 32835 ft | 487 kts | 171° |
| 2026-05-04 05:22 | -8.02673 | 144.34030 | 32834 ft | 487 kts | 171° |
| 2026-05-04 05:23 | -8.09408 | 144.35070 | 32839 ft | 493 kts | 170° |
| 2026-05-04 05:23 | -8.16216 | 144.36122 | 32844 ft | 495 kts | 171° |
| 2026-05-04 05:24 | -8.21871 | 144.36995 | 32833 ft | 494 kts | 170° |
| 2026-05-04 05:24 | -8.29790 | 144.38219 | 32827 ft | 492 kts | 171° |
| 2026-05-04 05:25 | -8.35405 | 144.39088 | 32840 ft | 490 kts | 171° |
| 2026-05-04 05:25 | -8.43229 | 144.40298 | 32837 ft | 489 kts | 170° |
| 2026-05-04 05:26 | -8.48830 | 144.41165 | 32839 ft | 489 kts | 170° |
| 2026-05-04 05:26 | -8.55559 | 144.42207 | 32845 ft | 489 kts | 171° |
| 2026-05-04 05:28 | -8.82625 | 144.46401 | 32834 ft | 493 kts | 171° |
| 2026-05-04 05:29 | -8.89389 | 144.47449 | 32832 ft | 492 kts | 170° |
| 2026-05-04 05:29 | -8.96157 | 144.48500 | 32839 ft | 491 kts | 170° |
| 2026-05-04 05:31 | -9.23151 | 144.52692 | 32840 ft | 489 kts | 170° |
| 2026-05-04 05:32 | -9.29862 | 144.53735 | 32840 ft | 487 kts | 170° |
| 2026-05-04 05:33 | -9.39856 | 144.55289 | 32835 ft | 484 kts | 169° |
| 2026-05-04 05:33 | -9.46522 | 144.56326 | 32846 ft | 484 kts | 170° |
| 2026-05-04 05:34 | -9.53152 | 144.57359 | 32844 ft | 485 kts | 170° |
| 2026-05-04 05:34 | -9.59853 | 144.58403 | 32836 ft | 487 kts | 168° |
| 2026-05-04 05:35 | -9.66564 | 144.59449 | 32847 ft | 489 kts | 170° |
| 2026-05-04 05:35 | -9.73274 | 144.60493 | 32852 ft | 490 kts | 170° |
| 2026-05-04 05:36 | -9.80051 | 144.61549 | 32850 ft | 489 kts | 170° |
| 2026-05-04 05:36 | -9.86733 | 144.62592 | 32844 ft | 488 kts | 169° |
| 2026-05-04 05:37 | -9.93454 | 144.63642 | 32851 ft | 486 kts | 170° |
| 2026-05-04 05:37 | -10.00118 | 144.64681 | 32848 ft | 486 kts | 170° |
| 2026-05-04 05:38 | -10.10146 | 144.66248 | 32849 ft | 486 kts | 170° |
| 2026-05-04 05:38 | -10.16833 | 144.67292 | 32849 ft | 487 kts | 170° |
| 2026-05-04 05:39 | -10.26936 | 144.68872 | 32852 ft | 491 kts | 171° |
| 2026-05-04 05:40 | -10.37074 | 144.70458 | 32855 ft | 491 kts | 171° |
| 2026-05-04 05:40 | -10.43783 | 144.71508 | 32853 ft | 490 kts | 171° |
| 2026-05-04 05:41 | -10.50524 | 144.72564 | 32852 ft | 490 kts | 171° |
| 2026-05-04 05:41 | -10.57341 | 144.73632 | 32865 ft | 498 kts | 171° |
| 2026-05-04 05:42 | -10.64194 | 144.74706 | 32855 ft | 499 kts | 171° |
| 2026-05-04 05:42 | -10.71034 | 144.75779 | 32857 ft | 494 kts | 171° |
| 2026-05-04 05:43 | -10.77809 | 144.76842 | 32866 ft | 494 kts | 171° |
| 2026-05-04 05:45 | -11.05167 | 144.81139 | 32871 ft | 497 kts | 171° |
| 2026-05-04 05:47 | -11.32473 | 144.85436 | 32876 ft | 497 kts | 171° |
| 2026-05-04 05:47 | -11.39324 | 144.86515 | 32876 ft | 497 kts | 171° |
| 2026-05-04 05:48 | -11.46165 | 144.87594 | 32877 ft | 496 kts | 171° |
| 2026-05-04 05:48 | -11.52965 | 144.88666 | 32871 ft | 492 kts | 172° |
| 2026-05-04 05:49 | -11.59672 | 144.89724 | 32881 ft | 489 kts | 172° |
| 2026-05-04 05:49 | -11.66440 | 144.90792 | 32883 ft | 493 kts | 171° |
| 2026-05-04 05:51 | -11.93531 | 144.95075 | 32883 ft | 492 kts | 172° |
| 2026-05-04 05:52 | -12.00291 | 144.96145 | 32879 ft | 492 kts | 172° |
| 2026-05-04 05:52 | -12.07099 | 144.97220 | 32878 ft | 493 kts | 173° |
| 2026-05-04 05:54 | -12.34156 | 145.01495 | 32884 ft | 491 kts | 173° |
| 2026-05-04 05:55 | -12.40916 | 145.02566 | 32882 ft | 491 kts | 173° |
| 2026-05-04 05:55 | -12.47660 | 145.03635 | 32889 ft | 490 kts | 173° |
| 2026-05-04 05:56 | -12.54371 | 145.04698 | 32888 ft | 491 kts | 173° |
| 2026-05-04 05:56 | -12.61130 | 145.05769 | 32887 ft | 491 kts | 173° |
| 2026-05-04 05:57 | -12.67899 | 145.06843 | 32881 ft | 493 kts | 173° |
| 2026-05-04 05:57 | -12.74681 | 145.07919 | 32894 ft | 494 kts | 173° |
| 2026-05-04 05:58 | -12.81496 | 145.09001 | 32894 ft | 496 kts | 173° |
| 2026-05-04 05:58 | -12.88330 | 145.10087 | 32894 ft | 497 kts | 173° |
| 2026-05-04 05:59 | -12.95127 | 145.11168 | 32902 ft | 497 kts | 172° |
| 2026-05-04 05:59 | -13.01955 | 145.12256 | 32891 ft | 494 kts | 172° |
| 2026-05-04 06:00 | -13.08727 | 145.13334 | 32891 ft | 490 kts | 172° |
| 2026-05-04 06:00 | -13.15416 | 145.14399 | 32900 ft | 488 kts | 172° |
| 2026-05-04 06:01 | -13.22139 | 145.15469 | 32905 ft | 488 kts | 172° |
| 2026-05-04 06:03 | -13.48982 | 145.19752 | 32907 ft | 487 kts | 172° |
| 2026-05-04 06:05 | -13.79077 | 145.24566 | 32912 ft | 486 kts | 173° |
| 2026-05-04 06:06 | -13.85765 | 145.25638 | 32914 ft | 486 kts | 173° |
| 2026-05-04 06:06 | -13.92409 | 145.26702 | 32914 ft | 486 kts | 173° |
| 2026-05-04 06:07 | -13.99103 | 145.27776 | 32911 ft | 485 kts | 173° |
| 2026-05-04 06:07 | -14.05778 | 145.28847 | 32915 ft | 485 kts | 173° |
| 2026-05-04 06:08 | -14.12402 | 145.29911 | 32916 ft | 484 kts | 173° |
| 2026-05-04 06:08 | -14.19080 | 145.30984 | 32915 ft | 485 kts | 173° |
| 2026-05-04 06:09 | -14.25755 | 145.32057 | 32921 ft | 486 kts | 173° |
| 2026-05-04 06:11 | -14.52609 | 145.36389 | 32927 ft | 489 kts | 173° |
| 2026-05-04 06:13 | -14.78352 | 145.40560 | 32934 ft | 488 kts | 173° |
| 2026-05-04 06:14 | -15.01859 | 145.44376 | 32939 ft | 489 kts | 173° |
| 2026-05-04 06:15 | -15.09694 | 145.45650 | 32934 ft | 490 kts | 173° |
| 2026-05-04 06:15 | -15.15337 | 145.46568 | 32939 ft | 490 kts | 173° |
| 2026-05-04 06:16 | -15.22031 | 145.47658 | 32937 ft | 489 kts | 173° |
| 2026-05-04 06:16 | -15.28766 | 145.48755 | 32935 ft | 489 kts | 173° |
| 2026-05-04 06:17 | -15.35496 | 145.49853 | 32940 ft | 489 kts | 173° |
| 2026-05-04 06:17 | -15.42220 | 145.50949 | 32942 ft | 488 kts | 173° |
| 2026-05-04 06:18 | -15.48902 | 145.52040 | 32937 ft | 487 kts | 173° |
| 2026-05-04 06:20 | -15.75652 | 145.56414 | 32946 ft | 485 kts | 174° |
| 2026-05-04 06:21 | -15.92254 | 145.59134 | 32949 ft | 483 kts | 174° |
| 2026-05-04 06:22 | -15.98886 | 145.60223 | 32962 ft | 483 kts | 174° |
| 2026-05-04 06:25 | -16.45358 | 145.67857 | 32966 ft | 482 kts | 175° |
| 2026-05-04 06:26 | -16.51971 | 145.68946 | 32967 ft | 481 kts | 175° |
| 2026-05-04 06:26 | -16.58599 | 145.70039 | 32977 ft | 481 kts | 175° |
| 2026-05-04 06:27 | -16.75144 | 145.72770 | 32968 ft | 481 kts | 175° |
| 2026-05-04 06:28 | -16.81720 | 145.73951 | 32970 ft | 484 kts | 169° |
| 2026-05-04 06:28 | -16.88037 | 145.76503 | 32972 ft | 492 kts | 155° |
| 2026-05-04 06:29 | -16.93845 | 145.80384 | 32972 ft | 497 kts | 149° |
| 2026-05-04 06:29 | -16.99573 | 145.84474 | 32976 ft | 498 kts | 149° |
| 2026-05-04 06:30 | -17.05297 | 145.88514 | 32969 ft | 498 kts | 149° |
| 2026-05-04 06:30 | -17.11055 | 145.92533 | 32974 ft | 497 kts | 149° |
| 2026-05-04 06:31 | -17.16804 | 145.96537 | 32988 ft | 496 kts | 149° |
| 2026-05-04 06:31 | -17.22554 | 146.00546 | 32969 ft | 497 kts | 149° |
| 2026-05-04 06:33 | -17.45571 | 146.16640 | 32994 ft | 498 kts | 149° |
| 2026-05-04 06:34 | -17.51321 | 146.20669 | 32989 ft | 497 kts | 149° |
| 2026-05-04 06:34 | -17.57081 | 146.24707 | 32980 ft | 498 kts | 149° |
| 2026-05-04 06:36 | -17.80106 | 146.40898 | 32987 ft | 497 kts | 149° |
| 2026-05-04 06:37 | -17.85826 | 146.44929 | 32987 ft | 497 kts | 149° |
| 2026-05-04 06:37 | -17.91574 | 146.48982 | 32984 ft | 497 kts | 150° |
| 2026-05-04 06:38 | -17.97326 | 146.53041 | 32985 ft | 498 kts | 150° |
| 2026-05-04 06:40 | -18.20330 | 146.69311 | 32983 ft | 499 kts | 149° |
| 2026-05-04 06:40 | -18.26091 | 146.73394 | 32990 ft | 499 kts | 149° |
| 2026-05-04 06:41 | -18.31829 | 146.77422 | 32989 ft | 497 kts | 153° |
| 2026-05-04 06:41 | -18.38014 | 146.80547 | 32995 ft | 490 kts | 164° |
| 2026-05-04 06:42 | -18.44520 | 146.82528 | 32996 ft | 485 kts | 171° |
| 2026-05-04 06:44 | -18.70806 | 146.89397 | 32992 ft | 488 kts | 171° |
| 2026-05-04 06:44 | -18.77388 | 146.91152 | 32995 ft | 488 kts | 171° |
| 2026-05-04 06:45 | -18.83990 | 146.92912 | 32995 ft | 488 kts | 171° |
| 2026-05-04 06:45 | -18.90543 | 146.94660 | 32995 ft | 489 kts | 171° |
| 2026-05-04 06:46 | -18.97148 | 146.96422 | 32995 ft | 489 kts | 171° |
| 2026-05-04 06:46 | -19.03752 | 146.98186 | 32995 ft | 489 kts | 171° |
| 2026-05-04 06:48 | -19.30161 | 147.05254 | 32998 ft | 491 kts | 171° |
| 2026-05-04 06:50 | -19.56696 | 147.12380 | 32998 ft | 492 kts | 171° |
| 2026-05-04 06:51 | -19.63333 | 147.14166 | 32988 ft | 492 kts | 171° |
| 2026-05-04 06:51 | -19.69976 | 147.15956 | 32995 ft | 492 kts | 171° |
| 2026-05-04 06:52 | -19.76572 | 147.17735 | 32997 ft | 492 kts | 171° |
| 2026-05-04 06:52 | -19.83212 | 147.19526 | 32997 ft | 493 kts | 171° |
| 2026-05-04 06:53 | -19.89872 | 147.21321 | 32996 ft | 493 kts | 171° |
| 2026-05-04 06:53 | -19.96517 | 147.23113 | 33000 ft | 494 kts | 171° |
| 2026-05-04 06:54 | -20.03188 | 147.24915 | 33007 ft | 494 kts | 171° |
| 2026-05-04 06:54 | -20.09891 | 147.26726 | 32994 ft | 495 kts | 171° |
| 2026-05-04 06:55 | -20.16525 | 147.28522 | 32996 ft | 496 kts | 171° |
| 2026-05-04 06:55 | -20.23218 | 147.30335 | 32991 ft | 496 kts | 171° |
| 2026-05-04 06:57 | -20.49990 | 147.37602 | 32999 ft | 497 kts | 171° |
| 2026-05-04 06:58 | -20.56697 | 147.39427 | 33005 ft | 496 kts | 171° |
| 2026-05-04 06:58 | -20.62252 | 147.40940 | 33004 ft | 496 kts | 171° |
| 2026-05-04 06:59 | -20.70045 | 147.43065 | 33002 ft | 496 kts | 171° |
| 2026-05-04 06:59 | -20.75621 | 147.44586 | 33006 ft | 496 kts | 171° |
| 2026-05-04 07:01 | -21.02451 | 147.51919 | 33000 ft | 499 kts | 171° |
| 2026-05-04 07:02 | -21.09187 | 147.53766 | 33002 ft | 499 kts | 171° |
| 2026-05-04 07:02 | -21.15911 | 147.55611 | 33004 ft | 499 kts | 171° |
| 2026-05-04 07:03 | -21.22645 | 147.57459 | 33003 ft | 499 kts | 171° |
| 2026-05-04 07:03 | -21.29344 | 147.59300 | 33006 ft | 499 kts | 171° |
| 2026-05-04 07:04 | -21.36074 | 147.61151 | 33004 ft | 499 kts | 171° |
| 2026-05-04 07:04 | -21.42801 | 147.63004 | 33004 ft | 498 kts | 171° |
| 2026-05-04 07:05 | -21.49535 | 147.64860 | 33002 ft | 498 kts | 171° |
| 2026-05-04 07:05 | -21.56255 | 147.66708 | 33035 ft | 512 kts | 171° |
| 2026-05-04 07:06 | -21.63293 | 147.68642 | 33022 ft | 530 kts | 171° |
| 2026-05-04 07:06 | -21.66879 | 147.69632 | 33022 ft | 537 kts | 171° |
| 2026-05-04 07:07 | -21.74193 | 147.71658 | 33018 ft | 547 kts | 171° |
| 2026-05-04 07:09 | -22.03853 | 147.79895 | 33023 ft | 550 kts | 171° |
| 2026-05-04 07:09 | -22.11263 | 147.81955 | 33031 ft | 550 kts | 171° |
| 2026-05-04 07:10 | -22.18679 | 147.84019 | 33024 ft | 550 kts | 171° |
| 2026-05-04 07:12 | -22.48274 | 147.92279 | 33037 ft | 550 kts | 171° |
| 2026-05-04 07:12 | -22.55651 | 147.94344 | 33034 ft | 550 kts | 171° |
| 2026-05-04 07:13 | -22.63074 | 147.96423 | 33032 ft | 549 kts | 171° |
| 2026-05-04 07:13 | -22.70470 | 147.98499 | 33041 ft | 549 kts | 171° |
| 2026-05-04 07:14 | -22.88960 | 148.03696 | 33032 ft | 550 kts | 171° |
| 2026-05-04 07:15 | -22.96366 | 148.05782 | 33035 ft | 550 kts | 171° |
| 2026-05-04 07:15 | -23.03790 | 148.07877 | 33039 ft | 551 kts | 171° |
| 2026-05-04 07:16 | -23.11231 | 148.09978 | 33023 ft | 552 kts | 171° |
| 2026-05-04 07:16 | -23.18680 | 148.12085 | 33030 ft | 553 kts | 171° |
| 2026-05-04 07:17 | -23.26081 | 148.14180 | 33030 ft | 553 kts | 171° |
| 2026-05-04 07:17 | -23.33536 | 148.16293 | 33029 ft | 553 kts | 172° |
| 2026-05-04 07:18 | -23.41003 | 148.18411 | 33025 ft | 554 kts | 172° |
| 2026-05-04 07:18 | -23.48454 | 148.20528 | 33017 ft | 553 kts | 172° |
| 2026-05-04 07:19 | -23.55861 | 148.22636 | 33027 ft | 553 kts | 172° |
| 2026-05-04 07:19 | -23.63314 | 148.24758 | 33034 ft | 553 kts | 172° |
| 2026-05-04 07:20 | -23.70772 | 148.26883 | 33025 ft | 553 kts | 172° |
| 2026-05-04 07:20 | -23.78231 | 148.29012 | 33025 ft | 553 kts | 172° |
| 2026-05-04 07:22 | -24.08083 | 148.37557 | 33025 ft | 555 kts | 172° |
| 2026-05-04 07:23 | -24.15559 | 148.39705 | 33025 ft | 555 kts | 172° |
| 2026-05-04 07:23 | -24.23049 | 148.41858 | 33033 ft | 555 kts | 172° |
| 2026-05-04 07:24 | -24.30479 | 148.43996 | 33030 ft | 555 kts | 172° |
| 2026-05-04 07:24 | -24.37957 | 148.46151 | 33030 ft | 555 kts | 172° |
| 2026-05-04 07:26 | -24.67831 | 148.54786 | 33027 ft | 556 kts | 172° |
| 2026-05-04 07:27 | -24.75321 | 148.56958 | 33057 ft | 556 kts | 172° |
| 2026-05-04 07:27 | -24.82799 | 148.59128 | 33046 ft | 557 kts | 172° |
| 2026-05-04 07:28 | -24.90305 | 148.61311 | 33036 ft | 557 kts | 172° |
| 2026-05-04 07:28 | -24.97802 | 148.63493 | 33038 ft | 557 kts | 172° |
| 2026-05-04 07:29 | -25.05261 | 148.65668 | 33051 ft | 558 kts | 172° |
| 2026-05-04 07:29 | -25.12765 | 148.67856 | 33039 ft | 558 kts | 172° |
| 2026-05-04 07:30 | -25.20271 | 148.70049 | 33043 ft | 558 kts | 172° |
| 2026-05-04 07:30 | -25.27788 | 148.72248 | 33045 ft | 558 kts | 172° |
| 2026-05-04 07:31 | -25.35308 | 148.74450 | 33051 ft | 559 kts | 172° |
| 2026-05-04 07:33 | -25.65273 | 148.83257 | 33050 ft | 557 kts | 172° |
| 2026-05-04 07:33 | -25.72764 | 148.85466 | 33053 ft | 556 kts | 172° |
| 2026-05-04 07:34 | -25.80188 | 148.87655 | 33042 ft | 556 kts | 172° |
| 2026-05-04 07:34 | -25.87690 | 148.89871 | 33039 ft | 556 kts | 172° |
| 2026-05-04 07:35 | -25.95170 | 148.92085 | 33034 ft | 557 kts | 173° |
| 2026-05-04 07:35 | -26.02658 | 148.94306 | 33035 ft | 556 kts | 173° |
| 2026-05-04 07:36 | -26.10139 | 148.96526 | 33050 ft | 556 kts | 173° |
| 2026-05-04 07:38 | -26.40004 | 149.05419 | 33035 ft | 556 kts | 173° |
| 2026-05-04 07:38 | -26.47499 | 149.07658 | 33066 ft | 556 kts | 173° |
| 2026-05-04 07:39 | -26.54937 | 149.10083 | 33040 ft | 559 kts | 171° |
| 2026-05-04 07:39 | -26.62357 | 149.12684 | 33041 ft | 559 kts | 170° |
| 2026-05-04 07:40 | -26.69788 | 149.15281 | 33043 ft | 559 kts | 171° |
| 2026-05-04 07:40 | -26.77224 | 149.17840 | 33049 ft | 560 kts | 171° |
| 2026-05-04 07:41 | -26.84688 | 149.20395 | 33043 ft | 561 kts | 171° |
| 2026-05-04 07:41 | -26.92102 | 149.22938 | 33039 ft | 561 kts | 171° |
| 2026-05-04 07:42 | -26.99582 | 149.25512 | 33041 ft | 562 kts | 171° |
| 2026-05-04 07:42 | -27.07082 | 149.28097 | 33042 ft | 562 kts | 171° |
| 2026-05-04 07:43 | -27.14554 | 149.30677 | 33040 ft | 562 kts | 171° |
| 2026-05-04 07:43 | -27.22005 | 149.33252 | 33040 ft | 562 kts | 171° |
| 2026-05-04 07:44 | -27.29490 | 149.35842 | 33047 ft | 561 kts | 171° |
| 2026-05-04 07:44 | -27.36983 | 149.38438 | 33047 ft | 563 kts | 171° |
| 2026-05-04 07:45 | -27.44484 | 149.41041 | 33047 ft | 564 kts | 171° |
| 2026-05-04 07:45 | -27.51939 | 149.43633 | 33045 ft | 565 kts | 171° |
| 2026-05-04 07:46 | -27.59436 | 149.46243 | 33059 ft | 565 kts | 171° |
| 2026-05-04 07:46 | -27.66964 | 149.48866 | 33048 ft | 566 kts | 171° |
| 2026-05-04 07:47 | -27.74501 | 149.51497 | 33040 ft | 566 kts | 171° |
| 2026-05-04 07:49 | -28.03306 | 149.61589 | 33038 ft | 565 kts | 171° |
| 2026-05-04 07:49 | -28.10817 | 149.64229 | 33041 ft | 564 kts | 171° |
| 2026-05-04 07:50 | -28.19537 | 149.67294 | 33043 ft | 564 kts | 172° |
| 2026-05-04 07:50 | -28.25851 | 149.69234 | 33034 ft | 559 kts | 175° |
| 2026-05-04 07:51 | -28.33410 | 149.71307 | 33042 ft | 558 kts | 175° |
| 2026-05-04 07:51 | -28.40918 | 149.73407 | 33041 ft | 559 kts | 175° |
| 2026-05-04 07:52 | -28.48479 | 149.75596 | 33046 ft | 559 kts | 174° |
| 2026-05-04 07:52 | -28.56009 | 149.77799 | 33039 ft | 558 kts | 174° |
| 2026-05-04 07:54 | -28.86044 | 149.86574 | 33040 ft | 557 kts | 174° |
| 2026-05-04 07:55 | -28.93558 | 149.88792 | 33046 ft | 557 kts | 174° |
| 2026-05-04 07:55 | -29.01053 | 149.91010 | 33057 ft | 556 kts | 174° |
| 2026-05-04 07:56 | -29.08518 | 149.93221 | 33049 ft | 556 kts | 174° |
| 2026-05-04 07:56 | -29.16006 | 149.95441 | 33044 ft | 556 kts | 174° |
| 2026-05-04 07:57 | -29.23501 | 149.97667 | 33045 ft | 556 kts | 174° |
| 2026-05-04 07:57 | -29.31001 | 149.99897 | 33047 ft | 556 kts | 174° |
| 2026-05-04 07:58 | -29.38493 | 150.02130 | 33053 ft | 556 kts | 174° |
| 2026-05-04 07:58 | -29.45986 | 150.04355 | 33052 ft | 556 kts | 174° |
| 2026-05-04 07:59 | -29.53495 | 150.06570 | 33088 ft | 557 kts | 174° |
| 2026-05-04 07:59 | -29.61019 | 150.08798 | 33064 ft | 558 kts | 174° |
| 2026-05-04 08:00 | -29.68542 | 150.11035 | 33067 ft | 559 kts | 174° |
| 2026-05-04 08:02 | -29.98591 | 150.20058 | 33070 ft | 557 kts | 174° |
| 2026-05-04 08:02 | -30.06087 | 150.22314 | 33097 ft | 556 kts | 174° |
| 2026-05-04 08:03 | -30.13583 | 150.24573 | 33081 ft | 558 kts | 174° |
| 2026-05-04 08:03 | -30.21105 | 150.26852 | 33087 ft | 558 kts | 174° |
| 2026-05-04 08:04 | -30.28629 | 150.29129 | 33088 ft | 558 kts | 174° |
| 2026-05-04 08:04 | -30.36133 | 150.31409 | 33107 ft | 559 kts | 174° |
| 2026-05-04 08:05 | -30.43611 | 150.33675 | 33090 ft | 560 kts | 174° |
| 2026-05-04 08:05 | -30.51195 | 150.35975 | 33082 ft | 560 kts | 174° |
| 2026-05-04 08:06 | -30.58728 | 150.38273 | 33087 ft | 560 kts | 174° |
| 2026-05-04 08:06 | -30.66217 | 150.40564 | 33080 ft | 560 kts | 174° |
| 2026-05-04 08:08 | -30.96335 | 150.49788 | 33082 ft | 559 kts | 174° |
| 2026-05-04 08:11 | -31.30182 | 150.60223 | 33089 ft | 559 kts | 174° |
| 2026-05-04 08:11 | -31.41466 | 150.63720 | 33101 ft | 559 kts | 174° |
| 2026-05-04 08:12 | -31.48986 | 150.66054 | 33088 ft | 558 kts | 174° |
| 2026-05-04 08:12 | -31.56444 | 150.68374 | 33088 ft | 558 kts | 174° |
| 2026-05-04 08:13 | -31.63937 | 150.70708 | 33087 ft | 558 kts | 174° |
| 2026-05-04 08:13 | -31.71466 | 150.73056 | 33086 ft | 559 kts | 174° |
| 2026-05-04 08:14 | -31.78990 | 150.75408 | 33080 ft | 560 kts | 174° |
| 2026-05-04 08:16 | -32.09018 | 150.84226 | 32517 ft | 540 kts | 181° |
| 2026-05-04 08:16 | -32.12719 | 150.84845 | 31705 ft | 534 kts | 181° |
| 2026-05-04 08:16 | -32.16375 | 150.85424 | 30883 ft | 531 kts | 180° |
| 2026-05-04 08:17 | -32.20037 | 150.86010 | 30068 ft | 529 kts | 179° |
| 2026-05-04 08:17 | -32.23665 | 150.86612 | 29258 ft | 525 kts | 179° |
| 2026-05-04 08:17 | -32.27263 | 150.87232 | 28616 ft | 517 kts | 178° |
| 2026-05-04 08:17 | -32.30812 | 150.87855 | 28033 ft | 509 kts | 178° |
| 2026-05-04 08:19 | -32.54393 | 150.92001 | 23865 ft | 472 kts | 176° |
| 2026-05-04 08:19 | -32.57620 | 150.92582 | 23243 ft | 468 kts | 176° |
| 2026-05-04 08:20 | -32.60827 | 150.93161 | 22583 ft | 463 kts | 175° |
| 2026-05-04 08:20 | -32.63977 | 150.93732 | 21998 ft | 458 kts | 175° |
| 2026-05-04 08:20 | -32.67120 | 150.94298 | 21402 ft | 454 kts | 175° |
| 2026-05-04 08:20 | -32.70222 | 150.94855 | 20778 ft | 451 kts | 175° |
| 2026-05-04 08:21 | -32.73319 | 150.95412 | 20209 ft | 447 kts | 175° |
| 2026-05-04 08:21 | -32.76379 | 150.95964 | 19653 ft | 444 kts | 175° |
| 2026-05-04 08:21 | -32.79441 | 150.96515 | 19131 ft | 441 kts | 175° |
| 2026-05-04 08:21 | -32.82465 | 150.97056 | 18689 ft | 437 kts | 175° |
| 2026-05-04 08:22 | -32.85462 | 150.97587 | 18257 ft | 433 kts | 175° |
| 2026-05-04 08:22 | -32.88431 | 150.98112 | 17747 ft | 430 kts | 175° |
| 2026-05-04 08:24 | -33.08691 | 151.01716 | 14512 ft | 412 kts | 174° |
| 2026-05-04 08:24 | -33.11567 | 151.02230 | 14118 ft | 408 kts | 174° |
| 2026-05-04 08:24 | -33.14330 | 151.02724 | 13728 ft | 405 kts | 174° |
| 2026-05-04 08:24 | -33.17109 | 151.03219 | 13253 ft | 404 kts | 174° |
| 2026-05-04 08:25 | -33.19889 | 151.03717 | 12753 ft | 404 kts | 174° |
| 2026-05-04 08:25 | -33.22656 | 151.04212 | 12327 ft | 401 kts | 174° |
| 2026-05-04 08:25 | -33.25402 | 151.04714 | 11974 ft | 397 kts | 174° |
| 2026-05-04 08:25 | -33.28114 | 151.05236 | 11562 ft | 393 kts | 173° |
| 2026-05-04 08:26 | -33.30805 | 151.05756 | 11316 ft | 387 kts | 173° |
| 2026-05-04 08:27 | -33.47816 | 151.09024 | 10869 ft | 326 kts | 174° |
| 2026-05-04 08:28 | -33.50031 | 151.09449 | 10773 ft | 320 kts | 174° |
| 2026-05-04 08:28 | -33.52217 | 151.09869 | 10609 ft | 317 kts | 174° |
| 2026-05-04 08:28 | -33.54396 | 151.10289 | 10397 ft | 317 kts | 174° |
| 2026-05-04 08:28 | -33.56568 | 151.10704 | 10166 ft | 316 kts | 174° |
| 2026-05-04 08:29 | -33.58740 | 151.11116 | 10007 ft | 315 kts | 174° |
| 2026-05-04 08:29 | -33.60898 | 151.11534 | 9813 ft | 314 kts | 174° |
| 2026-05-04 08:29 | -33.63052 | 151.11961 | 9605 ft | 314 kts | 174° |
| 2026-05-04 08:31 | -33.77894 | 151.14865 | 8166 ft | 310 kts | 174° |
| 2026-05-04 08:33 | -33.92232 | 151.12289 | 8000 ft | 302 kts | 198° |
| 2026-05-04 08:33 | -33.94242 | 151.11710 | 7997 ft | 300 kts | 198° |
| 2026-05-04 08:35 | -34.08347 | 151.07809 | 7981 ft | 301 kts | 182° |
| 2026-05-04 08:35 | -34.10433 | 151.08264 | 8024 ft | 310 kts | 168° |
| 2026-05-04 08:35 | -34.12544 | 151.08881 | 8015 ft | 316 kts | 169° |
| 2026-05-04 08:35 | -34.14686 | 151.09458 | 7988 ft | 312 kts | 171° |
| 2026-05-04 08:37 | -34.26549 | 151.12171 | 7999 ft | 307 kts | 174° |
| 2026-05-04 08:37 | -34.28664 | 151.12584 | 7999 ft | 309 kts | 174° |
| 2026-05-04 08:37 | -34.30776 | 151.13002 | 7998 ft | 310 kts | 174° |
| 2026-05-04 08:38 | -34.32909 | 151.13431 | 7998 ft | 312 kts | 173° |
| 2026-05-04 08:38 | -34.35043 | 151.13859 | 7995 ft | 312 kts | 174° |
| 2026-05-04 08:38 | -34.37191 | 151.14285 | 7987 ft | 312 kts | 174° |
| 2026-05-04 08:40 | -34.46889 | 151.23735 | 7373 ft | 287 kts | 62° |
| 2026-05-04 08:40 | -34.46000 | 151.25884 | 7093 ft | 281 kts | 54° |
| 2026-05-04 08:40 | -34.45042 | 151.27893 | 7131 ft | 273 kts | 53° |
| 2026-05-04 08:41 | -34.44061 | 151.29895 | 7150 ft | 277 kts | 52° |
| 2026-05-04 08:41 | -34.43193 | 151.31999 | 6898 ft | 280 kts | 60° |
| 2026-05-04 08:41 | -34.42120 | 151.33887 | 6599 ft | 267 kts | 35° |
| 2026-05-04 08:41 | -34.40596 | 151.35103 | 6294 ft | 259 kts | 24° |
| 2026-05-04 08:42 | -34.39036 | 151.36135 | 6068 ft | 250 kts | 20° |
| 2026-05-04 08:42 | -34.37417 | 151.36584 | 6001 ft | 236 kts | 351° |
| 2026-05-04 08:42 | -34.35881 | 151.35987 | 5894 ft | 234 kts | 329° |
| 2026-05-04 08:42 | -34.34498 | 151.34944 | 5550 ft | 235 kts | 328° |
| 2026-05-04 08:43 | -34.33080 | 151.34005 | 5263 ft | 235 kts | 330° |
| 2026-05-04 08:43 | -34.31639 | 151.33096 | 5027 ft | 232 kts | 331° |
| 2026-05-04 08:43 | -34.30216 | 151.32181 | 4720 ft | 232 kts | 331° |
| 2026-05-04 08:43 | -34.28835 | 151.31284 | 4733 ft | 220 kts | 331° |
| 2026-05-04 08:44 | -34.27494 | 151.30412 | 5042 ft | 215 kts | 331° |
| 2026-05-04 08:44 | -34.26208 | 151.29580 | 5733 ft | 202 kts | 330° |